<?xml version="1.0" encoding="UTF-8" standalone="no" ?>
<gpx xmlns="http://www.topografix.com/GPX/1/1" creator="MapSource 6.16.3" version="1.1" xmlns:xsi="http://www.w3.org/2001/XMLSchema-instance" xsi:schemaLocation="http://www.topografix.com/GPX/1/1 http://www.topografix.com/GPX/1/1/gpx.xsd">

  <metadata>
    <link href="http://www.garmin.com">
      <text>Garmin International</text>
    </link>
    <time>2016-09-06T14:55:25Z</time>
    <bounds maxlat="44.3930459395051" maxlon="11.270320415496826" minlat="44.302260875701904" minlon="11.209874236956239"/>
  </metadata>

  <trk>
    <name>ACTIVE LOG</name>
    <trkseg>
      <trkpt lat="44.392852820456028" lon="11.247409824281931">
        <ele>119</ele>
        <time>2002-10-27T11:17:29Z</time>
      </trkpt>
      <trkpt lat="44.3930459395051" lon="11.246830383315682">
        <ele>122</ele>
        <time>2002-10-27T11:17:15Z</time>
      </trkpt>
      <trkpt lat="44.392938567325473" lon="11.246680179610848">
        <ele>122</ele>
        <time>2002-10-27T11:17:11Z</time>
      </trkpt>
      <trkpt lat="44.391994513571262" lon="11.246251109987497">
        <ele>122</ele>
        <time>2002-10-27T11:16:51Z</time>
      </trkpt>
      <trkpt lat="44.391589164733887" lon="11.245944499969482">
        <ele>99</ele>
        <time>2002-10-27T07:44:23Z</time>
      </trkpt>
      <trkpt lat="44.390859603881836" lon="11.245601177215576">
        <ele>99</ele>
        <time>2002-10-27T07:44:47Z</time>
      </trkpt>
      <trkpt lat="44.390129959210753" lon="11.245300769805908">
        <ele>99</ele>
        <time>2002-10-27T07:45:07Z</time>
      </trkpt>
      <trkpt lat="44.38950777053833" lon="11.245021820068359">
        <ele>101</ele>
        <time>2002-10-27T07:45:24Z</time>
      </trkpt>
      <trkpt lat="44.389421939849854" lon="11.24495736323297">
        <ele>102</ele>
        <time>2002-10-27T07:45:26Z</time>
      </trkpt>
      <trkpt lat="44.388928413391113" lon="11.244206428527832">
        <ele>104</ele>
        <time>2002-10-27T07:45:44Z</time>
      </trkpt>
      <trkpt lat="44.388907039538026" lon="11.244034767150879">
        <ele>104</ele>
        <time>2002-10-27T07:45:47Z</time>
      </trkpt>
      <trkpt lat="44.388735294342041" lon="11.243648529052734">
        <ele>105</ele>
        <time>2002-10-27T07:45:55Z</time>
      </trkpt>
      <trkpt lat="44.388649463653564" lon="11.24351978302002">
        <ele>104</ele>
        <time>2002-10-27T07:45:58Z</time>
      </trkpt>
      <trkpt lat="44.387941360473633" lon="11.242682933807373">
        <ele>105</ele>
        <time>2002-10-27T07:46:19Z</time>
      </trkpt>
      <trkpt lat="44.387683868408203" lon="11.242361068725586">
        <ele>105</ele>
        <time>2002-10-27T07:46:27Z</time>
      </trkpt>
      <trkpt lat="44.387641036882997" lon="11.242167865857482">
        <ele>105</ele>
        <time>2002-10-27T07:46:30Z</time>
      </trkpt>
      <trkpt lat="44.387641036882997" lon="11.241846084594727">
        <ele>105</ele>
        <time>2002-10-27T07:46:35Z</time>
      </trkpt>
      <trkpt lat="44.38725471496582" lon="11.239871978759766">
        <ele>102</ele>
        <time>2002-10-27T07:46:59Z</time>
      </trkpt>
      <trkpt lat="44.387168884277344" lon="11.239528739824891">
        <ele>101</ele>
        <time>2002-10-27T07:47:03Z</time>
      </trkpt>
      <trkpt lat="44.386332035064697" lon="11.238284111022949">
        <ele>102</ele>
        <time>2002-10-27T07:47:23Z</time>
      </trkpt>
      <trkpt lat="44.385559558868408" lon="11.237232685089111">
        <ele>103</ele>
        <time>2002-10-27T07:47:43Z</time>
      </trkpt>
      <trkpt lat="44.384572505950928" lon="11.236374378204346">
        <ele>104</ele>
        <time>2002-10-27T07:48:04Z</time>
      </trkpt>
      <trkpt lat="44.383349418640137" lon="11.235623359680176">
        <ele>103</ele>
        <time>2002-10-27T07:48:27Z</time>
      </trkpt>
      <trkpt lat="44.382255077362061" lon="11.234571933746338">
        <ele>103</ele>
        <time>2002-10-27T07:48:50Z</time>
      </trkpt>
      <trkpt lat="44.381933212280273" lon="11.23427152633667">
        <ele>103</ele>
        <time>2002-10-27T07:48:57Z</time>
      </trkpt>
      <trkpt lat="44.381096363067627" lon="11.233370304107666">
        <ele>104</ele>
        <time>2002-10-27T07:49:17Z</time>
      </trkpt>
      <trkpt lat="44.380602836608887" lon="11.232855319976807">
        <ele>104</ele>
        <time>2002-10-27T07:49:29Z</time>
      </trkpt>
      <trkpt lat="44.379894733428955" lon="11.232104301452637">
        <ele>103</ele>
        <time>2002-10-27T07:49:47Z</time>
      </trkpt>
      <trkpt lat="44.37901496887207" lon="11.231353282928467">
        <ele>102</ele>
        <time>2002-10-27T07:50:06Z</time>
      </trkpt>
      <trkpt lat="44.378135204315186" lon="11.230559265241027">
        <ele>102</ele>
        <time>2002-10-27T07:50:25Z</time>
      </trkpt>
      <trkpt lat="44.377169609069824" lon="11.229357719421387">
        <ele>102</ele>
        <time>2002-10-27T07:50:48Z</time>
      </trkpt>
      <trkpt lat="44.376633167266846" lon="11.228070259094238">
        <ele>101</ele>
        <time>2002-10-27T07:51:08Z</time>
      </trkpt>
      <trkpt lat="44.375967979431152" lon="11.226632595062256">
        <ele>102</ele>
        <time>2002-10-27T07:51:32Z</time>
      </trkpt>
      <trkpt lat="44.375088214874268" lon="11.225495338439941">
        <ele>102</ele>
        <time>2002-10-27T07:51:54Z</time>
      </trkpt>
      <trkpt lat="44.374165534973145" lon="11.224443912506104">
        <ele>100</ele>
        <time>2002-10-27T07:52:17Z</time>
      </trkpt>
      <trkpt lat="44.373435974121094" lon="11.223435401916504">
        <ele>99</ele>
        <time>2002-10-27T07:52:37Z</time>
      </trkpt>
      <trkpt lat="44.372406005859375" lon="11.222405433654785">
        <ele>98</ele>
        <time>2002-10-27T07:53:01Z</time>
      </trkpt>
      <trkpt lat="44.37156924046576" lon="11.221268177032471">
        <ele>97</ele>
        <time>2002-10-27T07:53:23Z</time>
      </trkpt>
      <trkpt lat="44.370753765106201" lon="11.219959259033203">
        <ele>98</ele>
        <time>2002-10-27T07:53:45Z</time>
      </trkpt>
      <trkpt lat="44.370517730712891" lon="11.219315528869629">
        <ele>102</ele>
        <time>2002-10-27T07:53:54Z</time>
      </trkpt>
      <trkpt lat="44.370496273040771" lon="11.219229698181152">
        <ele>102</ele>
        <time>2002-10-27T07:53:55Z</time>
      </trkpt>
      <trkpt lat="44.370388984680176" lon="11.218392765149474">
        <ele>105</ele>
        <time>2002-10-27T07:54:06Z</time>
      </trkpt>
      <trkpt lat="44.37028169631958" lon="11.217362880706787">
        <ele>106</ele>
        <time>2002-10-27T07:54:20Z</time>
      </trkpt>
      <trkpt lat="44.370002662763" lon="11.216804981231689">
        <ele>107</ele>
        <time>2002-10-27T07:54:29Z</time>
      </trkpt>
      <trkpt lat="44.368929862976074" lon="11.215367317199707">
        <ele>106</ele>
        <time>2002-10-27T07:54:51Z</time>
      </trkpt>
      <trkpt lat="44.368629539385438" lon="11.214959621429443">
        <ele>104</ele>
        <time>2002-10-27T07:54:57Z</time>
      </trkpt>
      <trkpt lat="44.368393421173096" lon="11.214809417724609">
        <ele>103</ele>
        <time>2002-10-27T07:55:01Z</time>
      </trkpt>
      <trkpt lat="44.368200302124023" lon="11.214616298675537">
        <ele>100</ele>
        <time>2002-10-27T07:55:05Z</time>
      </trkpt>
      <trkpt lat="44.36807163991034" lon="11.214466094970703">
        <ele>99</ele>
        <time>2002-10-27T07:55:08Z</time>
      </trkpt>
      <trkpt lat="44.367578029632568" lon="11.21407994069159">
        <ele>95</ele>
        <time>2002-10-27T07:55:17Z</time>
      </trkpt>
      <trkpt lat="44.367470741271973" lon="11.214015483856201">
        <ele>94</ele>
        <time>2002-10-27T07:55:19Z</time>
      </trkpt>
      <trkpt lat="44.367406368255615" lon="11.213994026184082">
        <ele>93</ele>
        <time>2002-10-27T07:55:20Z</time>
      </trkpt>
      <trkpt lat="44.366955840960145" lon="11.214530467987061">
        <ele>91</ele>
        <time>2002-10-27T07:55:27Z</time>
      </trkpt>
      <trkpt lat="44.366483688354492" lon="11.214852333068848">
        <ele>90</ele>
        <time>2002-10-27T07:55:34Z</time>
      </trkpt>
      <trkpt lat="44.365539634600282" lon="11.21528148651123">
        <ele>90</ele>
        <time>2002-10-27T07:55:49Z</time>
      </trkpt>
      <trkpt lat="44.364209175109863" lon="11.215860759839416">
        <ele>89</ele>
        <time>2002-10-27T07:56:11Z</time>
      </trkpt>
      <trkpt lat="44.363415241241455" lon="11.21628999710083">
        <ele>90</ele>
        <time>2002-10-27T07:56:28Z</time>
      </trkpt>
      <trkpt lat="44.363372325897217" lon="11.216311538591981">
        <ele>90</ele>
        <time>2002-10-27T07:56:29Z</time>
      </trkpt>
      <trkpt lat="44.363265037536621" lon="11.216354370117188">
        <ele>90</ele>
        <time>2002-10-27T07:56:31Z</time>
      </trkpt>
      <trkpt lat="44.362921714782715" lon="11.216504573822021">
        <ele>90</ele>
        <time>2002-10-27T07:56:38Z</time>
      </trkpt>
      <trkpt lat="44.362599765881896" lon="11.216590404510498">
        <ele>90</ele>
        <time>2002-10-27T07:56:44Z</time>
      </trkpt>
      <trkpt lat="44.362256526947021" lon="11.216418659314513">
        <ele>90</ele>
        <time>2002-10-27T07:56:51Z</time>
      </trkpt>
      <trkpt lat="44.362192237749696" lon="11.216311538591981">
        <ele>90</ele>
        <time>2002-10-27T07:56:53Z</time>
      </trkpt>
      <trkpt lat="44.362063407897949" lon="11.21605396270752">
        <ele>90</ele>
        <time>2002-10-27T07:56:58Z</time>
      </trkpt>
      <trkpt lat="44.361999034881592" lon="11.21579647064209">
        <ele>91</ele>
        <time>2002-10-27T07:57:02Z</time>
      </trkpt>
      <trkpt lat="44.361977577209473" lon="11.215560436248779">
        <ele>91</ele>
        <time>2002-10-27T07:57:06Z</time>
      </trkpt>
      <trkpt lat="44.361934661865234" lon="11.214852333068848">
        <ele>93</ele>
        <time>2002-10-27T07:57:18Z</time>
      </trkpt>
      <trkpt lat="44.361848831176758" lon="11.214251518249512">
        <ele>96</ele>
        <time>2002-10-27T07:57:34Z</time>
      </trkpt>
      <trkpt lat="44.361763000488281" lon="11.213908195495605">
        <ele>99</ele>
        <time>2002-10-27T07:57:46Z</time>
      </trkpt>
      <trkpt lat="44.361720085144043" lon="11.213779365643859">
        <ele>101</ele>
        <time>2002-10-27T07:57:51Z</time>
      </trkpt>
      <trkpt lat="44.361720085144043" lon="11.213715076446533">
        <ele>102</ele>
        <time>2002-10-27T07:57:53Z</time>
      </trkpt>
      <trkpt lat="44.361698627471924" lon="11.213629161939025">
        <ele>103</ele>
        <time>2002-10-27T07:57:56Z</time>
      </trkpt>
      <trkpt lat="44.361612796783447" lon="11.213371837511659">
        <ele>106</ele>
        <time>2002-10-27T07:58:06Z</time>
      </trkpt>
      <trkpt lat="44.361526966094971" lon="11.21304988861084">
        <ele>110</ele>
        <time>2002-10-27T07:58:18Z</time>
      </trkpt>
      <trkpt lat="44.361505508422852" lon="11.212921058759093">
        <ele>111</ele>
        <time>2002-10-27T07:58:23Z</time>
      </trkpt>
      <trkpt lat="44.361484134569764" lon="11.212899684906006">
        <ele>113</ele>
        <time>2002-10-27T07:58:25Z</time>
      </trkpt>
      <trkpt lat="44.361248016357422" lon="11.212813938036561">
        <ele>116</ele>
        <time>2002-10-27T07:58:39Z</time>
      </trkpt>
      <trkpt lat="44.361226558685303" lon="11.212813938036561">
        <ele>116</ele>
        <time>2002-10-27T07:58:40Z</time>
      </trkpt>
      <trkpt lat="44.360818862915039" lon="11.212749481201172">
        <ele>119</ele>
        <time>2002-10-27T07:58:58Z</time>
      </trkpt>
      <trkpt lat="44.360024929046631" lon="11.21253490447998">
        <ele>120</ele>
        <time>2002-10-27T07:59:23Z</time>
      </trkpt>
      <trkpt lat="44.359209537506104" lon="11.212320327758789">
        <ele>121</ele>
        <time>2002-10-27T07:59:46Z</time>
      </trkpt>
      <trkpt lat="44.358479976654053" lon="11.212491989135742">
        <ele>121</ele>
        <time>2002-10-27T08:00:05Z</time>
      </trkpt>
      <trkpt lat="44.358458518981934" lon="11.21251336298883">
        <ele>121</ele>
        <time>2002-10-27T08:00:06Z</time>
      </trkpt>
      <trkpt lat="44.358286941424012" lon="11.212749481201172">
        <ele>121</ele>
        <time>2002-10-27T08:00:11Z</time>
      </trkpt>
      <trkpt lat="44.357900619506836" lon="11.213500499725342">
        <ele>120</ele>
        <time>2002-10-27T08:00:27Z</time>
      </trkpt>
      <trkpt lat="44.357321262359619" lon="11.21429443359375">
        <ele>120</ele>
        <time>2002-10-27T08:00:43Z</time>
      </trkpt>
      <trkpt lat="44.357020938768983" lon="11.214573383331299">
        <ele>123</ele>
        <time>2002-10-27T08:00:55Z</time>
      </trkpt>
      <trkpt lat="44.356634616851807" lon="11.215002536773682">
        <ele>126</ele>
        <time>2002-10-27T08:01:13Z</time>
      </trkpt>
      <trkpt lat="44.356527328491211" lon="11.215002536773682">
        <ele>126</ele>
        <time>2002-10-27T08:01:17Z</time>
      </trkpt>
      <trkpt lat="44.35605525970459" lon="11.214594841003418">
        <ele>127</ele>
        <time>2002-10-27T08:01:35Z</time>
      </trkpt>
      <trkpt lat="44.355883598327637" lon="11.21455192565918">
        <ele>127</ele>
        <time>2002-10-27T08:01:41Z</time>
      </trkpt>
      <trkpt lat="44.35579776763916" lon="11.214659214019775">
        <ele>127</ele>
        <time>2002-10-27T08:01:48Z</time>
      </trkpt>
      <trkpt lat="44.35579776763916" lon="11.214723587036133">
        <ele>128</ele>
        <time>2002-10-27T08:01:52Z</time>
      </trkpt>
      <trkpt lat="44.355754936113954" lon="11.214959621429443">
        <ele>130</ele>
        <time>2002-10-27T08:02:09Z</time>
      </trkpt>
      <trkpt lat="44.355776309967041" lon="11.21528148651123">
        <ele>133</ele>
        <time>2002-10-27T08:02:25Z</time>
      </trkpt>
      <trkpt lat="44.355754936113954" lon="11.215710639953613">
        <ele>136</ele>
        <time>2002-10-27T08:02:41Z</time>
      </trkpt>
      <trkpt lat="44.355754936113954" lon="11.215775012969971">
        <ele>137</ele>
        <time>2002-10-27T08:02:43Z</time>
      </trkpt>
      <trkpt lat="44.355669021606445" lon="11.216096878051758">
        <ele>140</ele>
        <time>2002-10-27T08:02:57Z</time>
      </trkpt>
      <trkpt lat="44.355604564771056" lon="11.216397285461426">
        <ele>143</ele>
        <time>2002-10-27T08:03:10Z</time>
      </trkpt>
      <trkpt lat="44.355518817901611" lon="11.216633319854736">
        <ele>147</ele>
        <time>2002-10-27T08:03:21Z</time>
      </trkpt>
      <trkpt lat="44.355368614196777" lon="11.216912269592285">
        <ele>150</ele>
        <time>2002-10-27T08:03:35Z</time>
      </trkpt>
      <trkpt lat="44.355218410491943" lon="11.217212677001953">
        <ele>153</ele>
        <time>2002-10-27T08:03:49Z</time>
      </trkpt>
      <trkpt lat="44.355046665295959" lon="11.217491626739502">
        <ele>156</ele>
        <time>2002-10-27T08:04:03Z</time>
      </trkpt>
      <trkpt lat="44.354875087738037" lon="11.217706203460693">
        <ele>159</ele>
        <time>2002-10-27T08:04:15Z</time>
      </trkpt>
      <trkpt lat="44.354767799377441" lon="11.218006610870361">
        <ele>161</ele>
        <time>2002-10-27T08:04:29Z</time>
      </trkpt>
      <trkpt lat="44.354746341705322" lon="11.218349933624268">
        <ele>164</ele>
        <time>2002-10-27T08:04:41Z</time>
      </trkpt>
      <trkpt lat="44.354746341705322" lon="11.218521595001221">
        <ele>166</ele>
        <time>2002-10-27T08:04:47Z</time>
      </trkpt>
      <trkpt lat="44.354767799377441" lon="11.218757629394531">
        <ele>170</ele>
        <time>2002-10-27T08:04:57Z</time>
      </trkpt>
      <trkpt lat="44.35481071472168" lon="11.218929290771484">
        <ele>173</ele>
        <time>2002-10-27T08:05:06Z</time>
      </trkpt>
      <trkpt lat="44.354832172393799" lon="11.219186782836914">
        <ele>176</ele>
        <time>2002-10-27T08:05:19Z</time>
      </trkpt>
      <trkpt lat="44.354832172393799" lon="11.219379901885986">
        <ele>180</ele>
        <time>2002-10-27T08:05:29Z</time>
      </trkpt>
      <trkpt lat="44.354939460754395" lon="11.219594478607178">
        <ele>183</ele>
        <time>2002-10-27T08:05:41Z</time>
      </trkpt>
      <trkpt lat="44.355025291442871" lon="11.219744682312012">
        <ele>186</ele>
        <time>2002-10-27T08:05:52Z</time>
      </trkpt>
      <trkpt lat="44.355046665295959" lon="11.219809139147401">
        <ele>187</ele>
        <time>2002-10-27T08:05:55Z</time>
      </trkpt>
      <trkpt lat="44.355003833770752" lon="11.219916259869933">
        <ele>189</ele>
        <time>2002-10-27T08:06:01Z</time>
      </trkpt>
      <trkpt lat="44.354896461591125" lon="11.220238208770752">
        <ele>192</ele>
        <time>2002-10-27T08:06:19Z</time>
      </trkpt>
      <trkpt lat="44.354896461591125" lon="11.220452785491943">
        <ele>195</ele>
        <time>2002-10-27T08:06:28Z</time>
      </trkpt>
      <trkpt lat="44.354982376098633" lon="11.220731735229492">
        <ele>199</ele>
        <time>2002-10-27T08:06:42Z</time>
      </trkpt>
      <trkpt lat="44.355003833770752" lon="11.220903396606445">
        <ele>202</ele>
        <time>2002-10-27T08:06:51Z</time>
      </trkpt>
      <trkpt lat="44.354832172393799" lon="11.221096515655518">
        <ele>204</ele>
        <time>2002-10-27T08:07:08Z</time>
      </trkpt>
      <trkpt lat="44.354617595672607" lon="11.22107514180243">
        <ele>208</ele>
        <time>2002-10-27T08:07:20Z</time>
      </trkpt>
      <trkpt lat="44.354467391967773" lon="11.22107514180243">
        <ele>212</ele>
        <time>2002-10-27T08:07:30Z</time>
      </trkpt>
      <trkpt lat="44.354231441393495" lon="11.221182262524962">
        <ele>214</ele>
        <time>2002-10-27T08:07:47Z</time>
      </trkpt>
      <trkpt lat="44.354166984558105" lon="11.221396923065186">
        <ele>218</ele>
        <time>2002-10-27T08:07:57Z</time>
      </trkpt>
      <trkpt lat="44.354102611541748" lon="11.22178316116333">
        <ele>221</ele>
        <time>2002-10-27T08:08:15Z</time>
      </trkpt>
      <trkpt lat="44.354102611541748" lon="11.222255229949951">
        <ele>223</ele>
        <time>2002-10-27T08:08:28Z</time>
      </trkpt>
      <trkpt lat="44.354038238525391" lon="11.222512722015381">
        <ele>225</ele>
        <time>2002-10-27T08:08:34Z</time>
      </trkpt>
      <trkpt lat="44.354145526885986" lon="11.22302770614624">
        <ele>227</ele>
        <time>2002-10-27T08:08:46Z</time>
      </trkpt>
      <trkpt lat="44.354681968688965" lon="11.224057674407959">
        <ele>228</ele>
        <time>2002-10-27T08:09:06Z</time>
      </trkpt>
      <trkpt lat="44.354982376098633" lon="11.224572658538818">
        <ele>229</ele>
        <time>2002-10-27T08:09:19Z</time>
      </trkpt>
      <trkpt lat="44.355132579803467" lon="11.22523776255548">
        <ele>232</ele>
        <time>2002-10-27T08:09:38Z</time>
      </trkpt>
      <trkpt lat="44.355025291442871" lon="11.226096237078309">
        <ele>235</ele>
        <time>2002-10-27T08:09:59Z</time>
      </trkpt>
      <trkpt lat="44.354939460754395" lon="11.226310729980469">
        <ele>238</ele>
        <time>2002-10-27T08:10:04Z</time>
      </trkpt>
      <trkpt lat="44.355003833770752" lon="11.22652530670166">
        <ele>239</ele>
        <time>2002-10-27T08:10:08Z</time>
      </trkpt>
      <trkpt lat="44.355518817901611" lon="11.226696968078613">
        <ele>241</ele>
        <time>2002-10-27T08:10:22Z</time>
      </trkpt>
      <trkpt lat="44.355990886688232" lon="11.226997375488281">
        <ele>242</ele>
        <time>2002-10-27T08:10:34Z</time>
      </trkpt>
      <trkpt lat="44.35605525970459" lon="11.227469360455871">
        <ele>243</ele>
        <time>2002-10-27T08:10:41Z</time>
      </trkpt>
      <trkpt lat="44.356076717376709" lon="11.227705478668213">
        <ele>243</ele>
        <time>2002-10-27T08:10:44Z</time>
      </trkpt>
      <trkpt lat="44.356141090393066" lon="11.227962970733643">
        <ele>243</ele>
        <time>2002-10-27T08:10:48Z</time>
      </trkpt>
      <trkpt lat="44.356441497802734" lon="11.228349208831787">
        <ele>247</ele>
        <time>2002-10-27T08:10:59Z</time>
      </trkpt>
      <trkpt lat="44.356677532196045" lon="11.2287353631109">
        <ele>251</ele>
        <time>2002-10-27T08:11:12Z</time>
      </trkpt>
      <trkpt lat="44.356741905212402" lon="11.228992938995361">
        <ele>254</ele>
        <time>2002-10-27T08:11:19Z</time>
      </trkpt>
      <trkpt lat="44.356763362884521" lon="11.229035938158631">
        <ele>254</ele>
        <time>2002-10-27T08:11:20Z</time>
      </trkpt>
      <trkpt lat="44.35680627822876" lon="11.229443633928895">
        <ele>257</ele>
        <time>2002-10-27T08:11:30Z</time>
      </trkpt>
      <trkpt lat="44.35680627822876" lon="11.229486465454102">
        <ele>257</ele>
        <time>2002-10-27T08:11:31Z</time>
      </trkpt>
      <trkpt lat="44.356935024261475" lon="11.229872703552246">
        <ele>260</ele>
        <time>2002-10-27T08:11:42Z</time>
      </trkpt>
      <trkpt lat="44.357106685638428" lon="11.230301940813661">
        <ele>264</ele>
        <time>2002-10-27T08:11:55Z</time>
      </trkpt>
      <trkpt lat="44.357278263196349" lon="11.230580806732178">
        <ele>266</ele>
        <time>2002-10-27T08:12:05Z</time>
      </trkpt>
      <trkpt lat="44.357771873474121" lon="11.230816841125488">
        <ele>268</ele>
        <time>2002-10-27T08:12:21Z</time>
      </trkpt>
      <trkpt lat="44.358394062146544" lon="11.230966961011291">
        <ele>270</ele>
        <time>2002-10-27T08:12:37Z</time>
      </trkpt>
      <trkpt lat="44.358737468719482" lon="11.230902671813965">
        <ele>271</ele>
        <time>2002-10-27T08:12:46Z</time>
      </trkpt>
      <trkpt lat="44.35884484089911" lon="11.231117164716125">
        <ele>272</ele>
        <time>2002-10-27T08:12:51Z</time>
      </trkpt>
      <trkpt lat="44.358823299407959" lon="11.231181621551514">
        <ele>272</ele>
        <time>2002-10-27T08:12:52Z</time>
      </trkpt>
      <trkpt lat="44.358930587768555" lon="11.231846809387207">
        <ele>272</ele>
        <time>2002-10-27T08:13:02Z</time>
      </trkpt>
      <trkpt lat="44.358973503112793" lon="11.231911182403564">
        <ele>272</ele>
        <time>2002-10-27T08:13:03Z</time>
      </trkpt>
      <trkpt lat="44.359230995178223" lon="11.23227596282959">
        <ele>272</ele>
        <time>2002-10-27T08:13:09Z</time>
      </trkpt>
      <trkpt lat="44.359359741210937" lon="11.232748031616211">
        <ele>271</ele>
        <time>2002-10-27T08:13:14Z</time>
      </trkpt>
      <trkpt lat="44.35950986109674" lon="11.2335205078125">
        <ele>269</ele>
        <time>2002-10-27T08:13:21Z</time>
      </trkpt>
      <trkpt lat="44.35955286026001" lon="11.233606338500977">
        <ele>269</ele>
        <time>2002-10-27T08:13:22Z</time>
      </trkpt>
      <trkpt lat="44.359917640686035" lon="11.234164237976074">
        <ele>270</ele>
        <time>2002-10-27T08:13:29Z</time>
      </trkpt>
      <trkpt lat="44.360003471374512" lon="11.234571933746338">
        <ele>269</ele>
        <time>2002-10-27T08:13:33Z</time>
      </trkpt>
      <trkpt lat="44.360175132751465" lon="11.235108375549316">
        <ele>269</ele>
        <time>2002-10-27T08:13:39Z</time>
      </trkpt>
      <trkpt lat="44.360260963439941" lon="11.235387325286865">
        <ele>270</ele>
        <time>2002-10-27T08:13:42Z</time>
      </trkpt>
      <trkpt lat="44.360346794128418" lon="11.236073970794678">
        <ele>270</ele>
        <time>2002-10-27T08:13:50Z</time>
      </trkpt>
      <trkpt lat="44.360475540161133" lon="11.236438835039735">
        <ele>271</ele>
        <time>2002-10-27T08:13:55Z</time>
      </trkpt>
      <trkpt lat="44.360561370849609" lon="11.236589038744569">
        <ele>271</ele>
        <time>2002-10-27T08:13:58Z</time>
      </trkpt>
      <trkpt lat="44.360690116882324" lon="11.237339973449707">
        <ele>275</ele>
        <time>2002-10-27T08:14:12Z</time>
      </trkpt>
      <trkpt lat="44.360604286193848" lon="11.237833499908447">
        <ele>278</ele>
        <time>2002-10-27T08:14:24Z</time>
      </trkpt>
      <trkpt lat="44.360454082489014" lon="11.238348484039307">
        <ele>281</ele>
        <time>2002-10-27T08:14:39Z</time>
      </trkpt>
      <trkpt lat="44.360368335619569" lon="11.238627433776855">
        <ele>284</ele>
        <time>2002-10-27T08:14:47Z</time>
      </trkpt>
      <trkpt lat="44.360282421112061" lon="11.239099502563477">
        <ele>287</ele>
        <time>2002-10-27T08:15:00Z</time>
      </trkpt>
      <trkpt lat="44.360217964276671" lon="11.239571571350098">
        <ele>290</ele>
        <time>2002-10-27T08:15:11Z</time>
      </trkpt>
      <trkpt lat="44.360217964276671" lon="11.239614486694336">
        <ele>290</ele>
        <time>2002-10-27T08:15:12Z</time>
      </trkpt>
      <trkpt lat="44.360196590423584" lon="11.239786064252257">
        <ele>291</ele>
        <time>2002-10-27T08:15:16Z</time>
      </trkpt>
      <trkpt lat="44.360110759735107" lon="11.240236759185791">
        <ele>293</ele>
        <time>2002-10-27T08:15:33Z</time>
      </trkpt>
      <trkpt lat="44.359884783625603" lon="11.240786528214812">
        <ele>311</ele>
        <time>2002-10-27T10:55:19Z</time>
      </trkpt>
      <trkpt lat="44.359520003199577" lon="11.240893816575408">
        <ele>314</ele>
        <time>2002-10-27T10:55:15Z</time>
      </trkpt>
      <trkpt lat="44.359434172511101" lon="11.240893816575408">
        <ele>314</ele>
        <time>2002-10-27T10:55:14Z</time>
      </trkpt>
      <trkpt lat="44.359112307429314" lon="11.240958189591765">
        <ele>317</ele>
        <time>2002-10-27T10:55:10Z</time>
      </trkpt>
      <trkpt lat="44.358661696314812" lon="11.241001104936004">
        <ele>321</ele>
        <time>2002-10-27T10:55:03Z</time>
      </trkpt>
      <trkpt lat="44.358575865626335" lon="11.240979563444853">
        <ele>321</ele>
        <time>2002-10-27T10:55:01Z</time>
      </trkpt>
      <trkpt lat="44.358275458216667" lon="11.240936731919646">
        <ele>321</ele>
        <time>2002-10-27T10:54:50Z</time>
      </trkpt>
      <trkpt lat="44.357588812708855" lon="11.241129767149687">
        <ele>321</ele>
        <time>2002-10-27T10:54:38Z</time>
      </trkpt>
      <trkpt lat="44.356902167201042" lon="11.241365885362029">
        <ele>321</ele>
        <time>2002-10-27T10:54:30Z</time>
      </trkpt>
      <trkpt lat="44.356365725398064" lon="11.241752123460174">
        <ele>323</ele>
        <time>2002-10-27T10:54:24Z</time>
      </trkpt>
      <trkpt lat="44.356172606348991" lon="11.242267107591033">
        <ele>328</ele>
        <time>2002-10-27T10:54:20Z</time>
      </trkpt>
      <trkpt lat="44.356172606348991" lon="11.243039583787322">
        <ele>332</ele>
        <time>2002-10-27T10:54:15Z</time>
      </trkpt>
      <trkpt lat="44.356194064021111" lon="11.243146872147918">
        <ele>334</ele>
        <time>2002-10-27T10:54:14Z</time>
      </trkpt>
      <trkpt lat="44.356108233332634" lon="11.243447279557586">
        <ele>337</ele>
        <time>2002-10-27T10:54:10Z</time>
      </trkpt>
      <trkpt lat="44.355893740430474" lon="11.243361365050077">
        <ele>343</ele>
        <time>2002-10-27T10:54:06Z</time>
      </trkpt>
      <trkpt lat="44.35574353672564" lon="11.243232702836394">
        <ele>344</ele>
        <time>2002-10-27T10:54:04Z</time>
      </trkpt>
      <trkpt lat="44.355593165382743" lon="11.243103872984648">
        <ele>346</ele>
        <time>2002-10-27T10:54:02Z</time>
      </trkpt>
      <trkpt lat="44.355335840955377" lon="11.243168329820037">
        <ele>351</ele>
        <time>2002-10-27T10:53:59Z</time>
      </trkpt>
      <trkpt lat="44.355185637250543" lon="11.24333999119699">
        <ele>352</ele>
        <time>2002-10-27T10:53:57Z</time>
      </trkpt>
      <trkpt lat="44.355013892054558" lon="11.243490194901824">
        <ele>352</ele>
        <time>2002-10-27T10:53:55Z</time>
      </trkpt>
      <trkpt lat="44.354928061366081" lon="11.243576025590301">
        <ele>353</ele>
        <time>2002-10-27T10:53:54Z</time>
      </trkpt>
      <trkpt lat="44.354649111628532" lon="11.243769060820341">
        <ele>357</ele>
        <time>2002-10-27T10:53:51Z</time>
      </trkpt>
      <trkpt lat="44.354563280940056" lon="11.243790602311492">
        <ele>359</ele>
        <time>2002-10-27T10:53:50Z</time>
      </trkpt>
      <trkpt lat="44.354262873530388" lon="11.243897890672088">
        <ele>361</ele>
        <time>2002-10-27T10:53:47Z</time>
      </trkpt>
      <trkpt lat="44.354091212153435" lon="11.244026636704803">
        <ele>361</ele>
        <time>2002-10-27T10:53:45Z</time>
      </trkpt>
      <trkpt lat="44.353254362940788" lon="11.2445845361799">
        <ele>364</ele>
        <time>2002-10-27T10:53:36Z</time>
      </trkpt>
      <trkpt lat="44.352632090449333" lon="11.245013689622283">
        <ele>368</ele>
        <time>2002-10-27T10:53:29Z</time>
      </trkpt>
      <trkpt lat="44.352052733302116" lon="11.245378470048308">
        <ele>372</ele>
        <time>2002-10-27T10:53:23Z</time>
      </trkpt>
      <trkpt lat="44.351773783564568" lon="11.245464300736785">
        <ele>375</ele>
        <time>2002-10-27T10:53:20Z</time>
      </trkpt>
      <trkpt lat="44.351065680384636" lon="11.245657419785857">
        <ele>376</ele>
        <time>2002-10-27T10:53:09Z</time>
      </trkpt>
      <trkpt lat="44.35067935846746" lon="11.245979284867644">
        <ele>377</ele>
        <time>2002-10-27T10:52:57Z</time>
      </trkpt>
      <trkpt lat="44.350143000483513" lon="11.246172403916717">
        <ele>376</ele>
        <time>2002-10-27T10:52:41Z</time>
      </trkpt>
      <trkpt lat="44.349906966090202" lon="11.246258234605193">
        <ele>376</ele>
        <time>2002-10-27T10:52:33Z</time>
      </trkpt>
      <trkpt lat="44.349499270319939" lon="11.246279692277312">
        <ele>375</ele>
        <time>2002-10-27T10:52:18Z</time>
      </trkpt>
      <trkpt lat="44.348984286189079" lon="11.246172403916717">
        <ele>373</ele>
        <time>2002-10-27T10:51:57Z</time>
      </trkpt>
      <trkpt lat="44.348662421107292" lon="11.246322607621551">
        <ele>370</ele>
        <time>2002-10-27T10:51:42Z</time>
      </trkpt>
      <trkpt lat="44.348362013697624" lon="11.246408438310027">
        <ele>367</ele>
        <time>2002-10-27T10:51:29Z</time>
      </trkpt>
      <trkpt lat="44.348297640681267" lon="11.246408438310027">
        <ele>365</ele>
        <time>2002-10-27T10:51:27Z</time>
      </trkpt>
      <trkpt lat="44.348040064796805" lon="11.246537184342742">
        <ele>363</ele>
        <time>2002-10-27T10:51:21Z</time>
      </trkpt>
      <trkpt lat="44.347932860255241" lon="11.246708761900663">
        <ele>362</ele>
        <time>2002-10-27T10:51:17Z</time>
      </trkpt>
      <trkpt lat="44.347804114222527" lon="11.246923422440886">
        <ele>359</ele>
        <time>2002-10-27T10:51:13Z</time>
      </trkpt>
      <trkpt lat="44.347610995173454" lon="11.247137999162078">
        <ele>358</ele>
        <time>2002-10-27T10:51:09Z</time>
      </trkpt>
      <trkpt lat="44.347396418452263" lon="11.247223829850554">
        <ele>358</ele>
        <time>2002-10-27T10:51:06Z</time>
      </trkpt>
      <trkpt lat="44.346988722681999" lon="11.247524237260222">
        <ele>360</ele>
        <time>2002-10-27T10:51:01Z</time>
      </trkpt>
      <trkpt lat="44.346817061305046" lon="11.247717272490263">
        <ele>362</ele>
        <time>2002-10-27T10:50:59Z</time>
      </trkpt>
      <trkpt lat="44.346495196223259" lon="11.247824560850859">
        <ele>367</ele>
        <time>2002-10-27T10:50:56Z</time>
      </trkpt>
      <trkpt lat="44.346280619502068" lon="11.247824560850859">
        <ele>370</ele>
        <time>2002-10-27T10:50:54Z</time>
      </trkpt>
      <trkpt lat="44.345915839076042" lon="11.247953390702605">
        <ele>373</ele>
        <time>2002-10-27T10:50:50Z</time>
      </trkpt>
      <trkpt lat="44.345658263191581" lon="11.248017763718963">
        <ele>376</ele>
        <time>2002-10-27T10:50:47Z</time>
      </trkpt>
      <trkpt lat="44.345357939600945" lon="11.247974764555693">
        <ele>380</ele>
        <time>2002-10-27T10:50:44Z</time>
      </trkpt>
      <trkpt lat="44.345250735059381" lon="11.247974764555693">
        <ele>382</ele>
        <time>2002-10-27T10:50:43Z</time>
      </trkpt>
      <trkpt lat="44.345143362879753" lon="11.248017763718963">
        <ele>382</ele>
        <time>2002-10-27T10:50:42Z</time>
      </trkpt>
      <trkpt lat="44.344843039289117" lon="11.248124968260527">
        <ele>386</ele>
        <time>2002-10-27T10:50:39Z</time>
      </trkpt>
      <trkpt lat="44.344499632716179" lon="11.248361086472869">
        <ele>391</ele>
        <time>2002-10-27T10:50:35Z</time>
      </trkpt>
      <trkpt lat="44.344456717371941" lon="11.248446917161345">
        <ele>392</ele>
        <time>2002-10-27T10:50:34Z</time>
      </trkpt>
      <trkpt lat="44.344285139814019" lon="11.248747324571013">
        <ele>397</ele>
        <time>2002-10-27T10:50:31Z</time>
      </trkpt>
      <trkpt lat="44.344091936945915" lon="11.249047731980681">
        <ele>401</ele>
        <time>2002-10-27T10:50:28Z</time>
      </trkpt>
      <trkpt lat="44.343984564766288" lon="11.249240767210722">
        <ele>404</ele>
        <time>2002-10-27T10:50:26Z</time>
      </trkpt>
      <trkpt lat="44.343684241175652" lon="11.24982020817697">
        <ele>411</ele>
        <time>2002-10-27T10:50:21Z</time>
      </trkpt>
      <trkpt lat="44.343619868159294" lon="11.249927496537566">
        <ele>412</ele>
        <time>2002-10-27T10:50:20Z</time>
      </trkpt>
      <trkpt lat="44.34346966445446" lon="11.250163530930877">
        <ele>416</ele>
        <time>2002-10-27T10:50:18Z</time>
      </trkpt>
      <trkpt lat="44.343298003077507" lon="11.250378107652068">
        <ele>420</ele>
        <time>2002-10-27T10:50:16Z</time>
      </trkpt>
      <trkpt lat="44.343083426356316" lon="11.250614058226347">
        <ele>423</ele>
        <time>2002-10-27T10:50:13Z</time>
      </trkpt>
      <trkpt lat="44.342911764979362" lon="11.250742888078094">
        <ele>427</ele>
        <time>2002-10-27T10:50:10Z</time>
      </trkpt>
      <trkpt lat="44.342825934290886" lon="11.250807177275419">
        <ele>431</ele>
        <time>2002-10-27T10:50:08Z</time>
      </trkpt>
      <trkpt lat="44.342675730586052" lon="11.250914465636015">
        <ele>436</ele>
        <time>2002-10-27T10:50:06Z</time>
      </trkpt>
      <trkpt lat="44.342525526881218" lon="11.251021837815642">
        <ele>440</ele>
        <time>2002-10-27T10:50:04Z</time>
      </trkpt>
      <trkpt lat="44.342353865504265" lon="11.251129126176238">
        <ele>441</ele>
        <time>2002-10-27T10:50:02Z</time>
      </trkpt>
      <trkpt lat="44.342203661799431" lon="11.251193499192595">
        <ele>443</ele>
        <time>2002-10-27T10:50:00Z</time>
      </trkpt>
      <trkpt lat="44.341817423701286" lon="11.251236414536834">
        <ele>447</ele>
        <time>2002-10-27T10:49:54Z</time>
      </trkpt>
      <trkpt lat="44.341753134503961" lon="11.251257872208953">
        <ele>447</ele>
        <time>2002-10-27T10:49:53Z</time>
      </trkpt>
      <trkpt lat="44.341624304652214" lon="11.251257872208953">
        <ele>449</ele>
        <time>2002-10-27T10:49:50Z</time>
      </trkpt>
      <trkpt lat="44.341323897242546" lon="11.251214873045683">
        <ele>451</ele>
        <time>2002-10-27T10:49:46Z</time>
      </trkpt>
      <trkpt lat="44.341044863685966" lon="11.251214873045683">
        <ele>453</ele>
        <time>2002-10-27T10:49:42Z</time>
      </trkpt>
      <trkpt lat="44.340358301997185" lon="11.251536821946502">
        <ele>456</ele>
        <time>2002-10-27T10:49:31Z</time>
      </trkpt>
      <trkpt lat="44.339993521571159" lon="11.251794314011931">
        <ele>456</ele>
        <time>2002-10-27T10:49:26Z</time>
      </trkpt>
      <trkpt lat="44.339693114161491" lon="11.251965975388885">
        <ele>461</ele>
        <time>2002-10-27T10:49:22Z</time>
      </trkpt>
      <trkpt lat="44.339607283473015" lon="11.25207326374948">
        <ele>462</ele>
        <time>2002-10-27T10:49:20Z</time>
      </trkpt>
      <trkpt lat="44.339564368128777" lon="11.252116179093719">
        <ele>463</ele>
        <time>2002-10-27T10:49:19Z</time>
      </trkpt>
      <trkpt lat="44.339499995112419" lon="11.252159094437957">
        <ele>464</ele>
        <time>2002-10-27T10:49:17Z</time>
      </trkpt>
      <trkpt lat="44.339435622096062" lon="11.252223467454314">
        <ele>468</ele>
        <time>2002-10-27T10:49:15Z</time>
      </trkpt>
      <trkpt lat="44.339306876063347" lon="11.252309298142791">
        <ele>470</ele>
        <time>2002-10-27T10:49:11Z</time>
      </trkpt>
      <trkpt lat="44.339220961555839" lon="11.252373671159148">
        <ele>472</ele>
        <time>2002-10-27T10:49:08Z</time>
      </trkpt>
      <trkpt lat="44.338899180293083" lon="11.252652620896697">
        <ele>475</ele>
        <time>2002-10-27T10:48:56Z</time>
      </trkpt>
      <trkpt lat="44.338663062080741" lon="11.252759909257293">
        <ele>477</ele>
        <time>2002-10-27T10:48:53Z</time>
      </trkpt>
      <trkpt lat="44.33849148452282" lon="11.252802824601531">
        <ele>480</ele>
        <time>2002-10-27T10:48:51Z</time>
      </trkpt>
      <trkpt lat="44.338276907801628" lon="11.252781366929412">
        <ele>486</ele>
        <time>2002-10-27T10:48:48Z</time>
      </trkpt>
      <trkpt lat="44.338062331080437" lon="11.252631163224578">
        <ele>492</ele>
        <time>2002-10-27T10:48:44Z</time>
      </trkpt>
      <trkpt lat="44.33797650039196" lon="11.252502417191863">
        <ele>494</ele>
        <time>2002-10-27T10:48:42Z</time>
      </trkpt>
      <trkpt lat="44.337804839015007" lon="11.252266382798553">
        <ele>497</ele>
        <time>2002-10-27T10:48:39Z</time>
      </trkpt>
      <trkpt lat="44.337633177638054" lon="11.25203026458621">
        <ele>499</ele>
        <time>2002-10-27T10:48:36Z</time>
      </trkpt>
      <trkpt lat="44.33722548186779" lon="11.251622568815947">
        <ele>500</ele>
        <time>2002-10-27T10:48:24Z</time>
      </trkpt>
      <trkpt lat="44.336925074458122" lon="11.251450991258025">
        <ele>500</ele>
        <time>2002-10-27T10:48:15Z</time>
      </trkpt>
      <trkpt lat="44.336453005671501" lon="11.251021837815642">
        <ele>501</ele>
        <time>2002-10-27T10:48:02Z</time>
      </trkpt>
      <trkpt lat="44.336259886622429" lon="11.250635599717498">
        <ele>498</ele>
        <time>2002-10-27T10:47:47Z</time>
      </trkpt>
      <trkpt lat="44.336088225245476" lon="11.250421022996306">
        <ele>500</ele>
        <time>2002-10-27T10:47:42Z</time>
      </trkpt>
      <trkpt lat="44.335852190852165" lon="11.250184988602996">
        <ele>504</ele>
        <time>2002-10-27T10:47:39Z</time>
      </trkpt>
      <trkpt lat="44.335723361000419" lon="11.250034784898162">
        <ele>507</ele>
        <time>2002-10-27T10:47:37Z</time>
      </trkpt>
      <trkpt lat="44.335551783442497" lon="11.24979866668582">
        <ele>512</ele>
        <time>2002-10-27T10:47:33Z</time>
      </trkpt>
      <trkpt lat="44.335466036573052" lon="11.249627089127898">
        <ele>513</ele>
        <time>2002-10-27T10:47:31Z</time>
      </trkpt>
      <trkpt lat="44.335401579737663" lon="11.249369597062469">
        <ele>514</ele>
        <time>2002-10-27T10:47:28Z</time>
      </trkpt>
      <trkpt lat="44.335380122065544" lon="11.249219393357635">
        <ele>515</ele>
        <time>2002-10-27T10:47:25Z</time>
      </trkpt>
      <trkpt lat="44.335337206721306" lon="11.249026274308562">
        <ele>513</ele>
        <time>2002-10-27T10:47:21Z</time>
      </trkpt>
      <trkpt lat="44.335315665230155" lon="11.248897528275847">
        <ele>512</ele>
        <time>2002-10-27T10:47:19Z</time>
      </trkpt>
      <trkpt lat="44.335272833704948" lon="11.248661493882537">
        <ele>509</ele>
        <time>2002-10-27T10:47:15Z</time>
      </trkpt>
      <trkpt lat="44.335101172327995" lon="11.248296713456511">
        <ele>509</ele>
        <time>2002-10-27T10:47:10Z</time>
      </trkpt>
      <trkpt lat="44.334865137934685" lon="11.248039221391082">
        <ele>508</ele>
        <time>2002-10-27T10:47:06Z</time>
      </trkpt>
      <trkpt lat="44.334521815180779" lon="11.247910475358367">
        <ele>508</ele>
        <time>2002-10-27T10:47:02Z</time>
      </trkpt>
      <trkpt lat="44.334157034754753" lon="11.247781729325652">
        <ele>510</ele>
        <time>2002-10-27T10:46:58Z</time>
      </trkpt>
      <trkpt lat="44.333878085017204" lon="11.247717272490263">
        <ele>513</ele>
        <time>2002-10-27T10:46:55Z</time>
      </trkpt>
      <trkpt lat="44.333599135279655" lon="11.247545694932342">
        <ele>514</ele>
        <time>2002-10-27T10:46:51Z</time>
      </trkpt>
      <trkpt lat="44.333470389246941" lon="11.247481321915984">
        <ele>515</ele>
        <time>2002-10-27T10:46:49Z</time>
      </trkpt>
      <trkpt lat="44.333427473902702" lon="11.247481321915984">
        <ele>516</ele>
        <time>2002-10-27T10:46:48Z</time>
      </trkpt>
      <trkpt lat="44.332354590296745" lon="11.247717272490263">
        <ele>517</ele>
        <time>2002-10-27T10:46:25Z</time>
      </trkpt>
      <trkpt lat="44.332140013575554" lon="11.247867476195097">
        <ele>519</ele>
        <time>2002-10-27T10:46:19Z</time>
      </trkpt>
      <trkpt lat="44.331903979182243" lon="11.247889017686248">
        <ele>519</ele>
        <time>2002-10-27T10:46:07Z</time>
      </trkpt>
      <trkpt lat="44.331882521510124" lon="11.247889017686248">
        <ele>519</ele>
        <time>2002-10-27T10:46:06Z</time>
      </trkpt>
      <trkpt lat="44.331710860133171" lon="11.247502779588103">
        <ele>516</ele>
        <time>2002-10-27T10:45:51Z</time>
      </trkpt>
      <trkpt lat="44.331410536542535" lon="11.246987795457244">
        <ele>513</ele>
        <time>2002-10-27T10:45:31Z</time>
      </trkpt>
      <trkpt lat="44.331152960658073" lon="11.246408438310027">
        <ele>511</ele>
        <time>2002-10-27T10:45:12Z</time>
      </trkpt>
      <trkpt lat="44.331131502985954" lon="11.246236776933074">
        <ele>509</ele>
        <time>2002-10-27T10:45:06Z</time>
      </trkpt>
      <trkpt lat="44.331195876002312" lon="11.246150862425566">
        <ele>508</ele>
        <time>2002-10-27T10:45:03Z</time>
      </trkpt>
      <trkpt lat="44.331474825739861" lon="11.245914911851287">
        <ele>506</ele>
        <time>2002-10-27T10:44:54Z</time>
      </trkpt>
      <trkpt lat="44.331517741084099" lon="11.245786165818572">
        <ele>505</ele>
        <time>2002-10-27T10:44:52Z</time>
      </trkpt>
      <trkpt lat="44.331582114100456" lon="11.245464300736785">
        <ele>504</ele>
        <time>2002-10-27T10:44:48Z</time>
      </trkpt>
      <trkpt lat="44.331818064674735" lon="11.244713282212615">
        <ele>507</ele>
        <time>2002-10-27T10:44:41Z</time>
      </trkpt>
      <trkpt lat="44.331839606165886" lon="11.244133925065398">
        <ele>510</ele>
        <time>2002-10-27T10:44:36Z</time>
      </trkpt>
      <trkpt lat="44.331710860133171" lon="11.243790602311492">
        <ele>515</ele>
        <time>2002-10-27T10:44:33Z</time>
      </trkpt>
      <trkpt lat="44.331625029444695" lon="11.243490194901824">
        <ele>519</ele>
        <time>2002-10-27T10:44:30Z</time>
      </trkpt>
      <trkpt lat="44.331517741084099" lon="11.243168329820037">
        <ele>523</ele>
        <time>2002-10-27T10:44:27Z</time>
      </trkpt>
      <trkpt lat="44.331410536542535" lon="11.242932295426726">
        <ele>527</ele>
        <time>2002-10-27T10:44:24Z</time>
      </trkpt>
      <trkpt lat="44.331346079707146" lon="11.242760634049773">
        <ele>531</ele>
        <time>2002-10-27T10:44:22Z</time>
      </trkpt>
      <trkpt lat="44.33123879134655" lon="11.242481684312224">
        <ele>535</ele>
        <time>2002-10-27T10:44:18Z</time>
      </trkpt>
      <trkpt lat="44.33123879134655" lon="11.242417311295867">
        <ele>536</ele>
        <time>2002-10-27T10:44:17Z</time>
      </trkpt>
      <trkpt lat="44.331152960658073" lon="11.242267107591033">
        <ele>540</ele>
        <time>2002-10-27T10:44:14Z</time>
      </trkpt>
      <trkpt lat="44.331067129969597" lon="11.242116903886199">
        <ele>542</ele>
        <time>2002-10-27T10:44:11Z</time>
      </trkpt>
      <trkpt lat="44.330916926264763" lon="11.241945158690214">
        <ele>546</ele>
        <time>2002-10-27T10:44:07Z</time>
      </trkpt>
      <trkpt lat="44.330766722559929" lon="11.241687666624784">
        <ele>551</ele>
        <time>2002-10-27T10:44:03Z</time>
      </trkpt>
      <trkpt lat="44.330616518855095" lon="11.24153746291995">
        <ele>554</ele>
        <time>2002-10-27T10:44:00Z</time>
      </trkpt>
      <trkpt lat="44.330444941297174" lon="11.241279970854521">
        <ele>557</ele>
        <time>2002-10-27T10:43:56Z</time>
      </trkpt>
      <trkpt lat="44.33023028075695" lon="11.24108693562448">
        <ele>559</ele>
        <time>2002-10-27T10:43:51Z</time>
      </trkpt>
      <trkpt lat="44.329929873347282" lon="11.240807985886931">
        <ele>561</ele>
        <time>2002-10-27T10:40:12Z</time>
      </trkpt>
      <trkpt lat="44.329393431544304" lon="11.240443205460906">
        <ele>561</ele>
        <time>2002-10-27T10:39:56Z</time>
      </trkpt>
      <trkpt lat="44.329307600855827" lon="11.240421663969755">
        <ele>562</ele>
        <time>2002-10-27T10:39:54Z</time>
      </trkpt>
      <trkpt lat="44.328621039167047" lon="11.240636324509978">
        <ele>564</ele>
        <time>2002-10-27T10:39:36Z</time>
      </trkpt>
      <trkpt lat="44.32823471724987" lon="11.24085090123117">
        <ele>563</ele>
        <time>2002-10-27T10:39:23Z</time>
      </trkpt>
      <trkpt lat="44.327934309840202" lon="11.240936731919646">
        <ele>565</ele>
        <time>2002-10-27T10:39:10Z</time>
      </trkpt>
      <trkpt lat="44.3274836987257" lon="11.241044020280242">
        <ele>568</ele>
        <time>2002-10-27T10:38:58Z</time>
      </trkpt>
      <trkpt lat="44.327290579676628" lon="11.241022562608123">
        <ele>567</ele>
        <time>2002-10-27T10:38:54Z</time>
      </trkpt>
      <trkpt lat="44.32699017226696" lon="11.240893816575408">
        <ele>567</ele>
        <time>2002-10-27T10:38:45Z</time>
      </trkpt>
      <trkpt lat="44.326818510890007" lon="11.240807985886931">
        <ele>565</ele>
        <time>2002-10-27T10:38:40Z</time>
      </trkpt>
      <trkpt lat="44.326625391840935" lon="11.240421663969755">
        <ele>565</ele>
        <time>2002-10-27T10:38:33Z</time>
      </trkpt>
      <trkpt lat="44.326561018824577" lon="11.240207171067595">
        <ele>566</ele>
        <time>2002-10-27T10:38:29Z</time>
      </trkpt>
      <trkpt lat="44.326389441266656" lon="11.239649271592498">
        <ele>567</ele>
        <time>2002-10-27T10:38:17Z</time>
      </trkpt>
      <trkpt lat="44.326324984431267" lon="11.239327406510711">
        <ele>568</ele>
        <time>2002-10-27T10:38:11Z</time>
      </trkpt>
      <trkpt lat="44.326282069087029" lon="11.239220118150115">
        <ele>569</ele>
        <time>2002-10-27T10:38:09Z</time>
      </trkpt>
      <trkpt lat="44.32600311934948" lon="11.238683676347136">
        <ele>570</ele>
        <time>2002-10-27T10:37:57Z</time>
      </trkpt>
      <trkpt lat="44.325788458809257" lon="11.238469099625945">
        <ele>567</ele>
        <time>2002-10-27T10:37:50Z</time>
      </trkpt>
      <trkpt lat="44.325681338086724" lon="11.238361811265349">
        <ele>569</ele>
        <time>2002-10-27T10:37:47Z</time>
      </trkpt>
      <trkpt lat="44.325509592890739" lon="11.23810431919992">
        <ele>574</ele>
        <time>2002-10-27T10:37:43Z</time>
      </trkpt>
      <trkpt lat="44.325423762202263" lon="11.237889658659697">
        <ele>576</ele>
        <time>2002-10-27T10:37:39Z</time>
      </trkpt>
      <trkpt lat="44.325199127197266" lon="11.237468719482422">
        <ele>575</ele>
        <time>2002-10-27T09:17:35Z</time>
      </trkpt>
      <trkpt lat="44.325199127197266" lon="11.236932277679443">
        <ele>577</ele>
        <time>2002-10-27T09:17:54Z</time>
      </trkpt>
      <trkpt lat="44.325306415557861" lon="11.236374378204346">
        <ele>576</ele>
        <time>2002-10-27T09:18:09Z</time>
      </trkpt>
      <trkpt lat="44.325177669525146" lon="11.235966682434082">
        <ele>574</ele>
        <time>2002-10-27T09:18:15Z</time>
      </trkpt>
      <trkpt lat="44.325156211853027" lon="11.235558986663818">
        <ele>573</ele>
        <time>2002-10-27T09:18:19Z</time>
      </trkpt>
      <trkpt lat="44.325177669525146" lon="11.235387325286865">
        <ele>573</ele>
        <time>2002-10-27T09:18:21Z</time>
      </trkpt>
      <trkpt lat="44.325156211853027" lon="11.234829425811768">
        <ele>573</ele>
        <time>2002-10-27T09:18:28Z</time>
      </trkpt>
      <trkpt lat="44.324898719787598" lon="11.234099864959717">
        <ele>576</ele>
        <time>2002-10-27T09:18:43Z</time>
      </trkpt>
      <trkpt lat="44.324512481689453" lon="11.233413219451904">
        <ele>574</ele>
        <time>2002-10-27T09:19:00Z</time>
      </trkpt>
      <trkpt lat="44.324469566345215" lon="11.233348762616515">
        <ele>573</ele>
        <time>2002-10-27T09:19:01Z</time>
      </trkpt>
      <trkpt lat="44.324362277984619" lon="11.233177185058594">
        <ele>569</ele>
        <time>2002-10-27T09:19:03Z</time>
      </trkpt>
      <trkpt lat="44.324233531951904" lon="11.232962608337402">
        <ele>565</ele>
        <time>2002-10-27T09:19:06Z</time>
      </trkpt>
      <trkpt lat="44.32408332824707" lon="11.23276948928833">
        <ele>562</ele>
        <time>2002-10-27T09:19:09Z</time>
      </trkpt>
      <trkpt lat="44.323954582214355" lon="11.232554912567139">
        <ele>560</ele>
        <time>2002-10-27T09:19:12Z</time>
      </trkpt>
      <trkpt lat="44.323461139574647" lon="11.231567859649658">
        <ele>557</ele>
        <time>2002-10-27T09:19:27Z</time>
      </trkpt>
      <trkpt lat="44.323439598083496" lon="11.231503486633301">
        <ele>558</ele>
        <time>2002-10-27T09:19:29Z</time>
      </trkpt>
      <trkpt lat="44.323439598083496" lon="11.231482028961182">
        <ele>559</ele>
        <time>2002-10-27T09:19:31Z</time>
      </trkpt>
      <trkpt lat="44.323375225067139" lon="11.231288909912109">
        <ele>562</ele>
        <time>2002-10-27T09:19:44Z</time>
      </trkpt>
      <trkpt lat="44.323375225067139" lon="11.231224536895752">
        <ele>563</ele>
        <time>2002-10-27T09:20:01Z</time>
      </trkpt>
      <trkpt lat="44.323375225067139" lon="11.231203079223633">
        <ele>563</ele>
        <time>2002-10-27T09:20:02Z</time>
      </trkpt>
      <trkpt lat="44.323246479034424" lon="11.230709636583924">
        <ele>566</ele>
        <time>2002-10-27T09:20:27Z</time>
      </trkpt>
      <trkpt lat="44.322946071624756" lon="11.230108737945557">
        <ele>569</ele>
        <time>2002-10-27T09:20:47Z</time>
      </trkpt>
      <trkpt lat="44.322774410247803" lon="11.229593837633729">
        <ele>565</ele>
        <time>2002-10-27T09:20:58Z</time>
      </trkpt>
      <trkpt lat="44.322731494903564" lon="11.229465007781982">
        <ele>563</ele>
        <time>2002-10-27T09:21:00Z</time>
      </trkpt>
      <trkpt lat="44.322710037231445" lon="11.229336261749268">
        <ele>562</ele>
        <time>2002-10-27T09:21:02Z</time>
      </trkpt>
      <trkpt lat="44.32258129119873" lon="11.228928565979004">
        <ele>563</ele>
        <time>2002-10-27T09:21:08Z</time>
      </trkpt>
      <trkpt lat="44.322516918182373" lon="11.228799819946289">
        <ele>562</ele>
        <time>2002-10-27T09:21:10Z</time>
      </trkpt>
      <trkpt lat="44.322323799133301" lon="11.228478038683534">
        <ele>560</ele>
        <time>2002-10-27T09:21:15Z</time>
      </trkpt>
      <trkpt lat="44.322259426116943" lon="11.228413581848145">
        <ele>558</ele>
        <time>2002-10-27T09:21:17Z</time>
      </trkpt>
      <trkpt lat="44.322237968444824" lon="11.228392124176025">
        <ele>558</ele>
        <time>2002-10-27T09:21:18Z</time>
      </trkpt>
      <trkpt lat="44.322130680084229" lon="11.228177463635802">
        <ele>556</ele>
        <time>2002-10-27T09:21:22Z</time>
      </trkpt>
      <trkpt lat="44.322023391723633" lon="11.227898597717285">
        <ele>552</ele>
        <time>2002-10-27T09:21:26Z</time>
      </trkpt>
      <trkpt lat="44.321937561035156" lon="11.227769935503602">
        <ele>551</ele>
        <time>2002-10-27T09:21:28Z</time>
      </trkpt>
      <trkpt lat="44.321830272674561" lon="11.227576732635498">
        <ele>549</ele>
        <time>2002-10-27T09:21:32Z</time>
      </trkpt>
      <trkpt lat="44.321787441149354" lon="11.227512359619141">
        <ele>549</ele>
        <time>2002-10-27T09:21:33Z</time>
      </trkpt>
      <trkpt lat="44.321680068969727" lon="11.227083206176758">
        <ele>546</ele>
        <time>2002-10-27T09:21:39Z</time>
      </trkpt>
      <trkpt lat="44.321680068969727" lon="11.226933002471924">
        <ele>546</ele>
        <time>2002-10-27T09:21:41Z</time>
      </trkpt>
      <trkpt lat="44.32159423828125" lon="11.226804340258241">
        <ele>544</ele>
        <time>2002-10-27T09:21:44Z</time>
      </trkpt>
      <trkpt lat="44.321551322937012" lon="11.22678279876709">
        <ele>544</ele>
        <time>2002-10-27T09:21:45Z</time>
      </trkpt>
      <trkpt lat="44.321315288543701" lon="11.226589679718018">
        <ele>540</ele>
        <time>2002-10-27T09:21:50Z</time>
      </trkpt>
      <trkpt lat="44.321186458691955" lon="11.226482391357422">
        <ele>539</ele>
        <time>2002-10-27T09:21:52Z</time>
      </trkpt>
      <trkpt lat="44.321036338806152" lon="11.226396560668945">
        <ele>537</ele>
        <time>2002-10-27T09:21:55Z</time>
      </trkpt>
      <trkpt lat="44.320929134264588" lon="11.226396560668945">
        <ele>536</ele>
        <time>2002-10-27T09:21:57Z</time>
      </trkpt>
      <trkpt lat="44.32084321975708" lon="11.226246440783143">
        <ele>536</ele>
        <time>2002-10-27T09:22:01Z</time>
      </trkpt>
      <trkpt lat="44.320757389068604" lon="11.226139068603516">
        <ele>537</ele>
        <time>2002-10-27T09:22:03Z</time>
      </trkpt>
      <trkpt lat="44.320628559216857" lon="11.225881576538086">
        <ele>537</ele>
        <time>2002-10-27T09:22:07Z</time>
      </trkpt>
      <trkpt lat="44.320542812347412" lon="11.225688541308045">
        <ele>537</ele>
        <time>2002-10-27T09:22:15Z</time>
      </trkpt>
      <trkpt lat="44.320456981658936" lon="11.225430965423584">
        <ele>541</ele>
        <time>2002-10-27T09:22:31Z</time>
      </trkpt>
      <trkpt lat="44.320199489593506" lon="11.225130641832948">
        <ele>539</ele>
        <time>2002-10-27T09:22:43Z</time>
      </trkpt>
      <trkpt lat="44.320006370544434" lon="11.224894523620605">
        <ele>536</ele>
        <time>2002-10-27T09:22:50Z</time>
      </trkpt>
      <trkpt lat="44.319641590118408" lon="11.224143505096436">
        <ele>533</ele>
        <time>2002-10-27T09:23:04Z</time>
      </trkpt>
      <trkpt lat="44.319105064496398" lon="11.223092079162598">
        <ele>530</ele>
        <time>2002-10-27T09:23:23Z</time>
      </trkpt>
      <trkpt lat="44.319062232971191" lon="11.222984790802002">
        <ele>531</ele>
        <time>2002-10-27T09:23:25Z</time>
      </trkpt>
      <trkpt lat="44.318697536364198" lon="11.222813129425049">
        <ele>534</ele>
        <time>2002-10-27T09:23:35Z</time>
      </trkpt>
      <trkpt lat="44.318461418151855" lon="11.222426891326904">
        <ele>536</ele>
        <time>2002-10-27T09:23:47Z</time>
      </trkpt>
      <trkpt lat="44.3181396368891" lon="11.222105026245117">
        <ele>537</ele>
        <time>2002-10-27T09:23:59Z</time>
      </trkpt>
      <trkpt lat="44.318053722381592" lon="11.222083568572998">
        <ele>539</ele>
        <time>2002-10-27T09:24:07Z</time>
      </trkpt>
      <trkpt lat="44.317903518676758" lon="11.222040737047791">
        <ele>543</ele>
        <time>2002-10-27T09:24:20Z</time>
      </trkpt>
      <trkpt lat="44.317903518676758" lon="11.222040737047791">
        <ele>543</ele>
        <time>2002-10-27T09:24:21Z</time>
      </trkpt>
      <trkpt lat="44.317710399627686" lon="11.221911907196045">
        <ele>545</ele>
        <time>2002-10-27T09:24:37Z</time>
      </trkpt>
      <trkpt lat="44.317646026611328" lon="11.221589958295226">
        <ele>546</ele>
        <time>2002-10-27T09:24:53Z</time>
      </trkpt>
      <trkpt lat="44.317646026611328" lon="11.221439838409424">
        <ele>545</ele>
        <time>2002-10-27T09:24:57Z</time>
      </trkpt>
      <trkpt lat="44.317646026611328" lon="11.221354007720947">
        <ele>542</ele>
        <time>2002-10-27T09:25:00Z</time>
      </trkpt>
      <trkpt lat="44.317667484283447" lon="11.221117973327637">
        <ele>539</ele>
        <time>2002-10-27T09:25:06Z</time>
      </trkpt>
      <trkpt lat="44.317667484283447" lon="11.22107514180243">
        <ele>539</ele>
        <time>2002-10-27T09:25:07Z</time>
      </trkpt>
      <trkpt lat="44.31786060333252" lon="11.220152378082275">
        <ele>536</ele>
        <time>2002-10-27T09:25:29Z</time>
      </trkpt>
      <trkpt lat="44.31786060333252" lon="11.219851970672607">
        <ele>533</ele>
        <time>2002-10-27T09:25:38Z</time>
      </trkpt>
      <trkpt lat="44.317839061841369" lon="11.219723224639893">
        <ele>530</ele>
        <time>2002-10-27T09:25:42Z</time>
      </trkpt>
      <trkpt lat="44.31786060333252" lon="11.219401359558105">
        <ele>526</ele>
        <time>2002-10-27T09:25:52Z</time>
      </trkpt>
      <trkpt lat="44.31786060333252" lon="11.219336986541748">
        <ele>526</ele>
        <time>2002-10-27T09:25:53Z</time>
      </trkpt>
      <trkpt lat="44.317839061841369" lon="11.219079494476318">
        <ele>524</ele>
        <time>2002-10-27T09:25:59Z</time>
      </trkpt>
      <trkpt lat="44.317796230316162" lon="11.218607425689697">
        <ele>525</ele>
        <time>2002-10-27T09:26:08Z</time>
      </trkpt>
      <trkpt lat="44.317753314971924" lon="11.218457221984863">
        <ele>527</ele>
        <time>2002-10-27T09:26:11Z</time>
      </trkpt>
      <trkpt lat="44.317624568939209" lon="11.218135440722108">
        <ele>525</ele>
        <time>2002-10-27T09:26:21Z</time>
      </trkpt>
      <trkpt lat="44.317538738250732" lon="11.217255592346191">
        <ele>527</ele>
        <time>2002-10-27T09:26:50Z</time>
      </trkpt>
      <trkpt lat="44.318504333496094" lon="11.21654748916626">
        <ele>528</ele>
        <time>2002-10-27T09:27:07Z</time>
      </trkpt>
      <trkpt lat="44.318633079528809" lon="11.216418659314513">
        <ele>531</ele>
        <time>2002-10-27T09:27:18Z</time>
      </trkpt>
      <trkpt lat="44.318568706512451" lon="11.2160325050354">
        <ele>534</ele>
        <time>2002-10-27T09:27:41Z</time>
      </trkpt>
      <trkpt lat="44.318568706512451" lon="11.21601096354425">
        <ele>533</ele>
        <time>2002-10-27T09:27:42Z</time>
      </trkpt>
      <trkpt lat="44.318675994873047" lon="11.215732097625732">
        <ele>537</ele>
        <time>2002-10-27T09:28:00Z</time>
      </trkpt>
      <trkpt lat="44.318654537200928" lon="11.215474605560303">
        <ele>540</ele>
        <time>2002-10-27T09:28:10Z</time>
      </trkpt>
      <trkpt lat="44.318633079528809" lon="11.215345859527588">
        <ele>541</ele>
        <time>2002-10-27T09:28:25Z</time>
      </trkpt>
      <trkpt lat="44.31859016418457" lon="11.215045535936952">
        <ele>541</ele>
        <time>2002-10-27T09:28:36Z</time>
      </trkpt>
      <trkpt lat="44.318504333496094" lon="11.214895164594054">
        <ele>537</ele>
        <time>2002-10-27T09:28:41Z</time>
      </trkpt>
      <trkpt lat="44.318482875823975" lon="11.214873790740967">
        <ele>537</ele>
        <time>2002-10-27T09:28:42Z</time>
      </trkpt>
      <trkpt lat="44.318461418151855" lon="11.214830875396729">
        <ele>537</ele>
        <time>2002-10-27T09:28:43Z</time>
      </trkpt>
      <trkpt lat="44.318311214447021" lon="11.214573383331299">
        <ele>535</ele>
        <time>2002-10-27T09:28:47Z</time>
      </trkpt>
      <trkpt lat="44.318225383758545" lon="11.214251518249512">
        <ele>535</ele>
        <time>2002-10-27T09:28:51Z</time>
      </trkpt>
      <trkpt lat="44.318203926086426" lon="11.21403694152832">
        <ele>535</ele>
        <time>2002-10-27T09:28:54Z</time>
      </trkpt>
      <trkpt lat="44.318010807037354" lon="11.213865280151367">
        <ele>533</ele>
        <time>2002-10-27T09:28:59Z</time>
      </trkpt>
      <trkpt lat="44.317967891693115" lon="11.213843822479248">
        <ele>532</ele>
        <time>2002-10-27T09:29:00Z</time>
      </trkpt>
      <trkpt lat="44.31734561920166" lon="11.213693618774414">
        <ele>531</ele>
        <time>2002-10-27T09:29:14Z</time>
      </trkpt>
      <trkpt lat="44.317174041643739" lon="11.213522041216493">
        <ele>531</ele>
        <time>2002-10-27T09:29:18Z</time>
      </trkpt>
      <trkpt lat="44.316744804382324" lon="11.212749481201172">
        <ele>527</ele>
        <time>2002-10-27T09:29:29Z</time>
      </trkpt>
      <trkpt lat="44.31659460067749" lon="11.212491989135742">
        <ele>526</ele>
        <time>2002-10-27T09:29:33Z</time>
      </trkpt>
      <trkpt lat="44.316465938463807" lon="11.212427616119385">
        <ele>527</ele>
        <time>2002-10-27T09:29:36Z</time>
      </trkpt>
      <trkpt lat="44.316122531890869" lon="11.212277412414551">
        <ele>528</ele>
        <time>2002-10-27T09:29:49Z</time>
      </trkpt>
      <trkpt lat="44.315865039825439" lon="11.211891174316406">
        <ele>525</ele>
        <time>2002-10-27T09:30:01Z</time>
      </trkpt>
      <trkpt lat="44.315822124481201" lon="11.211848258972168">
        <ele>525</ele>
        <time>2002-10-27T09:30:03Z</time>
      </trkpt>
      <trkpt lat="44.315757835283875" lon="11.211698139086366">
        <ele>523</ele>
        <time>2002-10-27T09:30:11Z</time>
      </trkpt>
      <trkpt lat="44.315736293792725" lon="11.211483478546143">
        <ele>520</ele>
        <time>2002-10-27T09:48:14Z</time>
      </trkpt>
      <trkpt lat="44.315156936645508" lon="11.210947036743164">
        <ele>517</ele>
        <time>2002-10-27T09:48:24Z</time>
      </trkpt>
      <trkpt lat="44.31504956446588" lon="11.210517883300781">
        <ele>513</ele>
        <time>2002-10-27T09:49:11Z</time>
      </trkpt>
      <trkpt lat="44.315028190612793" lon="11.21030330657959">
        <ele>512</ele>
        <time>2002-10-27T09:49:15Z</time>
      </trkpt>
      <trkpt lat="44.314942359924316" lon="11.210002899169922">
        <ele>510</ele>
        <time>2002-10-27T09:49:22Z</time>
      </trkpt>
      <trkpt lat="44.314620494842529" lon="11.209874236956239">
        <ele>508</ele>
        <time>2002-10-27T09:49:36Z</time>
      </trkpt>
      <trkpt lat="44.314491664990783" lon="11.209959983825684">
        <ele>503</ele>
        <time>2002-10-27T09:49:46Z</time>
      </trkpt>
      <trkpt lat="44.314427375793457" lon="11.210110187530518">
        <ele>505</ele>
        <time>2002-10-27T09:50:24Z</time>
      </trkpt>
      <trkpt lat="44.314320087432861" lon="11.210625171661377">
        <ele>501</ele>
        <time>2002-10-27T09:50:31Z</time>
      </trkpt>
      <trkpt lat="44.314255714416504" lon="11.210968494415283">
        <ele>498</ele>
        <time>2002-10-27T09:50:34Z</time>
      </trkpt>
      <trkpt lat="44.314191341400146" lon="11.21129035949707">
        <ele>495</ele>
        <time>2002-10-27T09:50:37Z</time>
      </trkpt>
      <trkpt lat="44.314169883728027" lon="11.211397564038634">
        <ele>494</ele>
        <time>2002-10-27T09:50:38Z</time>
      </trkpt>
      <trkpt lat="44.314019680023193" lon="11.211848258972168">
        <ele>490</ele>
        <time>2002-10-27T09:50:44Z</time>
      </trkpt>
      <trkpt lat="44.313976764678955" lon="11.211977005004883">
        <ele>488</ele>
        <time>2002-10-27T09:50:46Z</time>
      </trkpt>
      <trkpt lat="44.313912391662598" lon="11.212320327758789">
        <ele>484</ele>
        <time>2002-10-27T09:50:49Z</time>
      </trkpt>
      <trkpt lat="44.313504695892334" lon="11.213457584381104">
        <ele>484</ele>
        <time>2002-10-27T09:51:01Z</time>
      </trkpt>
      <trkpt lat="44.31286096572876" lon="11.214165687561035">
        <ele>486</ele>
        <time>2002-10-27T09:51:18Z</time>
      </trkpt>
      <trkpt lat="44.312517559155822" lon="11.214680671691895">
        <ele>486</ele>
        <time>2002-10-27T09:51:32Z</time>
      </trkpt>
      <trkpt lat="44.311873912811279" lon="11.214358806610107">
        <ele>489</ele>
        <time>2002-10-27T09:51:43Z</time>
      </trkpt>
      <trkpt lat="44.311809539794922" lon="11.214315891265869">
        <ele>490</ele>
        <time>2002-10-27T09:51:44Z</time>
      </trkpt>
      <trkpt lat="44.311659336090088" lon="11.214530467987061">
        <ele>489</ele>
        <time>2002-10-27T09:51:53Z</time>
      </trkpt>
      <trkpt lat="44.311573505401611" lon="11.215002536773682">
        <ele>485</ele>
        <time>2002-10-27T09:51:58Z</time>
      </trkpt>
      <trkpt lat="44.311401760205626" lon="11.216204166412354">
        <ele>481</ele>
        <time>2002-10-27T09:52:09Z</time>
      </trkpt>
      <trkpt lat="44.311380386352539" lon="11.216311538591981">
        <ele>482</ele>
        <time>2002-10-27T09:52:10Z</time>
      </trkpt>
      <trkpt lat="44.311187267303467" lon="11.217513084411621">
        <ele>483</ele>
        <time>2002-10-27T09:52:21Z</time>
      </trkpt>
      <trkpt lat="44.310801029205322" lon="11.218414306640625">
        <ele>485</ele>
        <time>2002-10-27T09:52:32Z</time>
      </trkpt>
      <trkpt lat="44.310522079467773" lon="11.21877908706665">
        <ele>485</ele>
        <time>2002-10-27T09:52:39Z</time>
      </trkpt>
      <trkpt lat="44.310436164960265" lon="11.21953010559082">
        <ele>484</ele>
        <time>2002-10-27T09:52:53Z</time>
      </trkpt>
      <trkpt lat="44.310393333435059" lon="11.219701766967773">
        <ele>476</ele>
        <time>2002-10-27T09:53:48Z</time>
      </trkpt>
      <trkpt lat="44.310393333435059" lon="11.219744682312012">
        <ele>474</ele>
        <time>2002-10-27T09:53:51Z</time>
      </trkpt>
      <trkpt lat="44.310414791107178" lon="11.21978759765625">
        <ele>471</ele>
        <time>2002-10-27T09:53:54Z</time>
      </trkpt>
      <trkpt lat="44.311122894287109" lon="11.220324039459229">
        <ele>466</ele>
        <time>2002-10-27T09:53:58Z</time>
      </trkpt>
      <trkpt lat="44.311230182647705" lon="11.22028112411499">
        <ele>463</ele>
        <time>2002-10-27T09:54:01Z</time>
      </trkpt>
      <trkpt lat="44.311251640319824" lon="11.22028112411499">
        <ele>463</ele>
        <time>2002-10-27T09:54:02Z</time>
      </trkpt>
      <trkpt lat="44.311380386352539" lon="11.220259666442871">
        <ele>461</ele>
        <time>2002-10-27T09:54:05Z</time>
      </trkpt>
      <trkpt lat="44.311165809631348" lon="11.220088005065918">
        <ele>459</ele>
        <time>2002-10-27T09:54:10Z</time>
      </trkpt>
      <trkpt lat="44.311208724975586" lon="11.219894886016846">
        <ele>458</ele>
        <time>2002-10-27T09:54:20Z</time>
      </trkpt>
      <trkpt lat="44.311251640319824" lon="11.219830513000488">
        <ele>457</ele>
        <time>2002-10-27T09:54:32Z</time>
      </trkpt>
      <trkpt lat="44.31155196391046" lon="11.219830513000488">
        <ele>453</ele>
        <time>2002-10-27T09:54:41Z</time>
      </trkpt>
      <trkpt lat="44.31161642074585" lon="11.219830513000488">
        <ele>450</ele>
        <time>2002-10-27T09:54:44Z</time>
      </trkpt>
      <trkpt lat="44.311723709106445" lon="11.219851970672607">
        <ele>446</ele>
        <time>2002-10-27T09:54:46Z</time>
      </trkpt>
      <trkpt lat="44.311788082122803" lon="11.219851970672607">
        <ele>442</ele>
        <time>2002-10-27T09:54:48Z</time>
      </trkpt>
      <trkpt lat="44.311852538958192" lon="11.219851970672607">
        <ele>438</ele>
        <time>2002-10-27T09:54:51Z</time>
      </trkpt>
      <trkpt lat="44.312453269958496" lon="11.220474159345031">
        <ele>446</ele>
        <time>2002-10-27T09:55:42Z</time>
      </trkpt>
      <trkpt lat="44.312496185302734" lon="11.220624363049865">
        <ele>446</ele>
        <time>2002-10-27T09:55:45Z</time>
      </trkpt>
      <trkpt lat="44.312539100646973" lon="11.220710277557373">
        <ele>451</ele>
        <time>2002-10-27T09:55:59Z</time>
      </trkpt>
      <trkpt lat="44.312582015991211" lon="11.220860481262207">
        <ele>454</ele>
        <time>2002-10-27T09:56:09Z</time>
      </trkpt>
      <trkpt lat="44.312582015991211" lon="11.220881938934326">
        <ele>454</ele>
        <time>2002-10-27T09:56:10Z</time>
      </trkpt>
      <trkpt lat="44.312582015991211" lon="11.220946311950684">
        <ele>456</ele>
        <time>2002-10-27T09:56:15Z</time>
      </trkpt>
      <trkpt lat="44.312496185302734" lon="11.221268177032471">
        <ele>456</ele>
        <time>2002-10-27T09:56:35Z</time>
      </trkpt>
      <trkpt lat="44.312303066253662" lon="11.221697330474854">
        <ele>457</ele>
        <time>2002-10-27T09:56:56Z</time>
      </trkpt>
      <trkpt lat="44.312263503670692" lon="11.22201818972826">
        <ele>457</ele>
        <time>1989-12-31T00:00:00Z</time>
      </trkpt>
      <trkpt lat="44.311916828155518" lon="11.222383975982666">
        <ele>449</ele>
        <time>2003-03-16T10:03:32Z</time>
      </trkpt>
      <trkpt lat="44.311809539794922" lon="11.222491264343262">
        <ele>448</ele>
        <time>2003-03-16T10:03:34Z</time>
      </trkpt>
      <trkpt lat="44.311766624450684" lon="11.222555637359619">
        <ele>447</ele>
        <time>2003-03-16T10:03:35Z</time>
      </trkpt>
      <trkpt lat="44.311401760205626" lon="11.22352123260498">
        <ele>444</ele>
        <time>2003-03-16T10:03:44Z</time>
      </trkpt>
      <trkpt lat="44.311294639483094" lon="11.223843097686768">
        <ele>443</ele>
        <time>2003-03-16T10:03:47Z</time>
      </trkpt>
      <trkpt lat="44.310650825500488" lon="11.22478723526001">
        <ele>444</ele>
        <time>2003-03-16T10:04:01Z</time>
      </trkpt>
      <trkpt lat="44.310071468353271" lon="11.225216388702393">
        <ele>443</ele>
        <time>2003-03-16T10:04:13Z</time>
      </trkpt>
      <trkpt lat="44.309985637664795" lon="11.22528076171875">
        <ele>443</ele>
        <time>2003-03-16T10:04:17Z</time>
      </trkpt>
      <trkpt lat="44.309835433959961" lon="11.225366592407227">
        <ele>444</ele>
        <time>2003-03-16T10:04:21Z</time>
      </trkpt>
      <trkpt lat="44.309234619140625" lon="11.225666999816895">
        <ele>443</ele>
        <time>2003-03-16T10:04:32Z</time>
      </trkpt>
      <trkpt lat="44.308741092681885" lon="11.225666999816895">
        <ele>443</ele>
        <time>2003-03-16T10:04:42Z</time>
      </trkpt>
      <trkpt lat="44.308526515960693" lon="11.225731372833252">
        <ele>443</ele>
        <time>2003-03-16T10:04:46Z</time>
      </trkpt>
      <trkpt lat="44.30764683522284" lon="11.226332187652588">
        <ele>446</ele>
        <time>2003-03-16T10:05:07Z</time>
      </trkpt>
      <trkpt lat="44.307281970977783" lon="11.226675510406494">
        <ele>449</ele>
        <time>2003-03-16T10:05:19Z</time>
      </trkpt>
      <trkpt lat="44.307260513305664" lon="11.226696968078613">
        <ele>449</ele>
        <time>2003-03-16T10:05:20Z</time>
      </trkpt>
      <trkpt lat="44.307024478912354" lon="11.227126121520996">
        <ele>452</ele>
        <time>2003-03-16T10:05:36Z</time>
      </trkpt>
      <trkpt lat="44.306938564404845" lon="11.227426528930664">
        <ele>455</ele>
        <time>2003-03-16T10:05:49Z</time>
      </trkpt>
      <trkpt lat="44.306917190551758" lon="11.227812767028809">
        <ele>456</ele>
        <time>2003-03-16T10:06:06Z</time>
      </trkpt>
      <trkpt lat="44.306509494781494" lon="11.228435039520264">
        <ele>453</ele>
        <time>2003-03-16T10:06:27Z</time>
      </trkpt>
      <trkpt lat="44.306488037109375" lon="11.228478038683534">
        <ele>451</ele>
        <time>2003-03-16T10:06:28Z</time>
      </trkpt>
      <trkpt lat="44.306380664929748" lon="11.228606700897217">
        <ele>450</ele>
        <time>2003-03-16T10:06:30Z</time>
      </trkpt>
      <trkpt lat="44.30635929107666" lon="11.228692531585693">
        <ele>450</ele>
        <time>2003-03-16T10:06:31Z</time>
      </trkpt>
      <trkpt lat="44.306316375732422" lon="11.228907108306885">
        <ele>449</ele>
        <time>2003-03-16T10:06:33Z</time>
      </trkpt>
      <trkpt lat="44.306294918060303" lon="11.229336261749268">
        <ele>446</ele>
        <time>2003-03-16T10:06:37Z</time>
      </trkpt>
      <trkpt lat="44.306230461224914" lon="11.229593837633729">
        <ele>444</ele>
        <time>2003-03-16T10:06:41Z</time>
      </trkpt>
      <trkpt lat="44.306144714355469" lon="11.22976541519165">
        <ele>442</ele>
        <time>2003-03-16T10:06:44Z</time>
      </trkpt>
      <trkpt lat="44.305994510650635" lon="11.229915618896484">
        <ele>440</ele>
        <time>2003-03-16T10:06:47Z</time>
      </trkpt>
      <trkpt lat="44.305908679962158" lon="11.229915618896484">
        <ele>440</ele>
        <time>2003-03-16T10:06:48Z</time>
      </trkpt>
      <trkpt lat="44.305672561749816" lon="11.229915618896484">
        <ele>438</ele>
        <time>2003-03-16T10:06:52Z</time>
      </trkpt>
      <trkpt lat="44.305522441864014" lon="11.229937076568604">
        <ele>438</ele>
        <time>2003-03-16T10:06:54Z</time>
      </trkpt>
      <trkpt lat="44.305307865142822" lon="11.230065822601318">
        <ele>434</ele>
        <time>2003-03-16T10:06:57Z</time>
      </trkpt>
      <trkpt lat="44.305243492126465" lon="11.230151737108827">
        <ele>435</ele>
        <time>2003-03-16T10:06:58Z</time>
      </trkpt>
      <trkpt lat="44.305050373077393" lon="11.230366230010986">
        <ele>432</ele>
        <time>2003-03-16T10:07:01Z</time>
      </trkpt>
      <trkpt lat="44.304685592651367" lon="11.230623722076416">
        <ele>430</ele>
        <time>2003-03-16T10:07:06Z</time>
      </trkpt>
      <trkpt lat="44.304256439208984" lon="11.230966961011291">
        <ele>432</ele>
        <time>2003-03-16T10:07:13Z</time>
      </trkpt>
      <trkpt lat="44.30412769317627" lon="11.231181621551514">
        <ele>433</ele>
        <time>2003-03-16T10:07:18Z</time>
      </trkpt>
      <trkpt lat="44.304084777832031" lon="11.231503486633301">
        <ele>429</ele>
        <time>2003-03-16T10:07:23Z</time>
      </trkpt>
      <trkpt lat="44.304041862487793" lon="11.231803894042969">
        <ele>424</ele>
        <time>2003-03-16T10:07:27Z</time>
      </trkpt>
      <trkpt lat="44.304020404815674" lon="11.232125759124756">
        <ele>417</ele>
        <time>2003-03-16T10:07:30Z</time>
      </trkpt>
      <trkpt lat="44.303998863324523" lon="11.23223296366632">
        <ele>415</ele>
        <time>2003-03-16T10:07:31Z</time>
      </trkpt>
      <trkpt lat="44.303805828094482" lon="11.2325119972229">
        <ele>412</ele>
        <time>2003-03-16T10:07:35Z</time>
      </trkpt>
      <trkpt lat="44.303591335192323" lon="11.232833862304688">
        <ele>412</ele>
        <time>2003-03-16T10:07:39Z</time>
      </trkpt>
      <trkpt lat="44.303548336029053" lon="11.233220100402832">
        <ele>407</ele>
        <time>2003-03-16T10:07:43Z</time>
      </trkpt>
      <trkpt lat="44.303634166717529" lon="11.233456134796143">
        <ele>406</ele>
        <time>2003-03-16T10:07:45Z</time>
      </trkpt>
      <trkpt lat="44.303634166717529" lon="11.233863830566406">
        <ele>398</ele>
        <time>2003-03-16T10:07:49Z</time>
      </trkpt>
      <trkpt lat="44.303591335192323" lon="11.233928203582764">
        <ele>396</ele>
        <time>2003-03-16T10:07:50Z</time>
      </trkpt>
      <trkpt lat="44.303398132324219" lon="11.234078407287598">
        <ele>392</ele>
        <time>2003-03-16T10:07:53Z</time>
      </trkpt>
      <trkpt lat="44.303140640258789" lon="11.234314441680908">
        <ele>387</ele>
        <time>2003-03-16T10:07:57Z</time>
      </trkpt>
      <trkpt lat="44.303076267242432" lon="11.234400272369385">
        <ele>384</ele>
        <time>2003-03-16T10:07:58Z</time>
      </trkpt>
      <trkpt lat="44.302754402160645" lon="11.234722137451172">
        <ele>377</ele>
        <time>2003-03-16T10:08:02Z</time>
      </trkpt>
      <trkpt lat="44.302561283111572" lon="11.234936714172363">
        <ele>373</ele>
        <time>2003-03-16T10:08:05Z</time>
      </trkpt>
      <trkpt lat="44.302475536242127" lon="11.235044002532959">
        <ele>372</ele>
        <time>2003-03-16T10:08:07Z</time>
      </trkpt>
      <trkpt lat="44.302453994750977" lon="11.235108375549316">
        <ele>369</ele>
        <time>2003-03-16T10:08:08Z</time>
      </trkpt>
      <trkpt lat="44.302453994750977" lon="11.235151290893555">
        <ele>369</ele>
        <time>2003-03-16T10:08:09Z</time>
      </trkpt>
      <trkpt lat="44.302561283111572" lon="11.235151290893555">
        <ele>368</ele>
        <time>2003-03-16T10:08:12Z</time>
      </trkpt>
      <trkpt lat="44.302668571472168" lon="11.235086917877197">
        <ele>368</ele>
        <time>2003-03-16T10:08:14Z</time>
      </trkpt>
      <trkpt lat="44.303033435717225" lon="11.235172664746642">
        <ele>363</ele>
        <time>2003-03-16T10:08:20Z</time>
      </trkpt>
      <trkpt lat="44.303205013275146" lon="11.235365867614746">
        <ele>358</ele>
        <time>2003-03-16T10:08:23Z</time>
      </trkpt>
      <trkpt lat="44.303398132324219" lon="11.235387325286865">
        <ele>353</ele>
        <time>2003-03-16T10:08:26Z</time>
      </trkpt>
      <trkpt lat="44.303526878356934" lon="11.235344409942627">
        <ele>350</ele>
        <time>2003-03-16T10:08:28Z</time>
      </trkpt>
      <trkpt lat="44.303655624389648" lon="11.235301494598389">
        <ele>345</ele>
        <time>2003-03-16T10:08:30Z</time>
      </trkpt>
      <trkpt lat="44.303719997406006" lon="11.23528003692627">
        <ele>345</ele>
        <time>2003-03-16T10:08:31Z</time>
      </trkpt>
      <trkpt lat="44.303848659619689" lon="11.235237121582031">
        <ele>342</ele>
        <time>2003-03-16T10:08:33Z</time>
      </trkpt>
      <trkpt lat="44.303848659619689" lon="11.235623359680176">
        <ele>338</ele>
        <time>2003-03-16T10:08:37Z</time>
      </trkpt>
      <trkpt lat="44.303827285766602" lon="11.23577356338501">
        <ele>335</ele>
        <time>2003-03-16T10:08:38Z</time>
      </trkpt>
      <trkpt lat="44.303741538897157" lon="11.236159801483154">
        <ele>330</ele>
        <time>2003-03-16T10:08:41Z</time>
      </trkpt>
      <trkpt lat="44.303741538897157" lon="11.236310005187988">
        <ele>328</ele>
        <time>2003-03-16T10:08:42Z</time>
      </trkpt>
      <trkpt lat="44.30361270904541" lon="11.236867904663086">
        <ele>322</ele>
        <time>2003-03-16T10:08:46Z</time>
      </trkpt>
      <trkpt lat="44.303569793701172" lon="11.237146938219666">
        <ele>318</ele>
        <time>2003-03-16T10:08:48Z</time>
      </trkpt>
      <trkpt lat="44.303462505340576" lon="11.237361431121826">
        <ele>314</ele>
        <time>2003-03-16T10:08:50Z</time>
      </trkpt>
      <trkpt lat="44.3033766746521" lon="11.237597465515137">
        <ele>311</ele>
        <time>2003-03-16T10:08:52Z</time>
      </trkpt>
      <trkpt lat="44.303269386291504" lon="11.237940788269043">
        <ele>307</ele>
        <time>2003-03-16T10:08:55Z</time>
      </trkpt>
      <trkpt lat="44.302968978881836" lon="11.238713264465332">
        <ele>304</ele>
        <time>2003-03-16T10:09:02Z</time>
      </trkpt>
      <trkpt lat="44.302926063537598" lon="11.238820636644959">
        <ele>301</ele>
        <time>2003-03-16T10:09:03Z</time>
      </trkpt>
      <trkpt lat="44.302668571472168" lon="11.238949298858643">
        <ele>295</ele>
        <time>2003-03-16T10:09:06Z</time>
      </trkpt>
      <trkpt lat="44.302496910095215" lon="11.238949298858643">
        <ele>292</ele>
        <time>2003-03-16T10:09:08Z</time>
      </trkpt>
      <trkpt lat="44.302260875701904" lon="11.238842010498047">
        <ele>283</ele>
        <time>2003-03-16T10:09:17Z</time>
      </trkpt>
      <trkpt lat="44.302453994750977" lon="11.239142417907715">
        <ele>281</ele>
        <time>2003-03-16T10:09:20Z</time>
      </trkpt>
      <trkpt lat="44.302604198455811" lon="11.239292621612549">
        <ele>276</ele>
        <time>2003-03-16T10:09:22Z</time>
      </trkpt>
      <trkpt lat="44.302496910095215" lon="11.23950719833374">
        <ele>277</ele>
        <time>2003-03-16T10:09:23Z</time>
      </trkpt>
      <trkpt lat="44.302797317504883" lon="11.23976469039917">
        <ele>273</ele>
        <time>2003-03-16T10:09:27Z</time>
      </trkpt>
      <trkpt lat="44.30286169052124" lon="11.239850521087646">
        <ele>268</ele>
        <time>2003-03-16T10:09:28Z</time>
      </trkpt>
      <trkpt lat="44.302947521209717" lon="11.239914894104004">
        <ele>266</ele>
        <time>2003-03-16T10:09:29Z</time>
      </trkpt>
      <trkpt lat="44.302883064374328" lon="11.240065097808838">
        <ele>251</ele>
        <time>2003-03-16T10:09:40Z</time>
      </trkpt>
      <trkpt lat="44.302818775177002" lon="11.240215301513672">
        <ele>246</ele>
        <time>2003-03-16T10:09:42Z</time>
      </trkpt>
      <trkpt lat="44.302732860669494" lon="11.240365505218506">
        <ele>242</ele>
        <time>2003-03-16T10:09:44Z</time>
      </trkpt>
      <trkpt lat="44.302690029144287" lon="11.240429878234863">
        <ele>240</ele>
        <time>2003-03-16T10:09:45Z</time>
      </trkpt>
      <trkpt lat="44.303226470947266" lon="11.24051570892334">
        <ele>235</ele>
        <time>2003-03-16T10:09:49Z</time>
      </trkpt>
      <trkpt lat="44.303505420684814" lon="11.240665912628174">
        <ele>231</ele>
        <time>2003-03-16T10:09:52Z</time>
      </trkpt>
      <trkpt lat="44.303956031799316" lon="11.240687370300293">
        <ele>225</ele>
        <time>2003-03-16T10:09:56Z</time>
      </trkpt>
      <trkpt lat="44.303956031799316" lon="11.240751659497619">
        <ele>225</ele>
        <time>2003-03-16T10:09:57Z</time>
      </trkpt>
      <trkpt lat="44.303998863324523" lon="11.240880489349365">
        <ele>223</ele>
        <time>2003-03-16T10:09:59Z</time>
      </trkpt>
      <trkpt lat="44.303891658782959" lon="11.241245269775391">
        <ele>215</ele>
        <time>2003-03-16T10:10:03Z</time>
      </trkpt>
      <trkpt lat="44.303762912750244" lon="11.241524219512939">
        <ele>211</ele>
        <time>2003-03-16T10:10:06Z</time>
      </trkpt>
      <trkpt lat="44.303719997406006" lon="11.241631507873535">
        <ele>209</ele>
        <time>2003-03-16T10:10:07Z</time>
      </trkpt>
      <trkpt lat="44.303483963012695" lon="11.241760337725282">
        <ele>202</ele>
        <time>2003-03-16T10:10:10Z</time>
      </trkpt>
      <trkpt lat="44.303398132324219" lon="11.241846084594727">
        <ele>195</ele>
        <time>2003-03-16T10:10:16Z</time>
      </trkpt>
      <trkpt lat="44.303526878356934" lon="11.241803169250488">
        <ele>193</ele>
        <time>2003-03-16T10:10:19Z</time>
      </trkpt>
      <trkpt lat="44.30361270904541" lon="11.241824626922607">
        <ele>192</ele>
        <time>2003-03-16T10:10:21Z</time>
      </trkpt>
      <trkpt lat="44.303655624389648" lon="11.241846084594727">
        <ele>190</ele>
        <time>2003-03-16T10:10:22Z</time>
      </trkpt>
      <trkpt lat="44.303526878356934" lon="11.241931915283203">
        <ele>187</ele>
        <time>2003-03-16T10:10:25Z</time>
      </trkpt>
      <trkpt lat="44.303483963012695" lon="11.241996288299561">
        <ele>184</ele>
        <time>2003-03-16T10:10:26Z</time>
      </trkpt>
      <trkpt lat="44.30335521697998" lon="11.24225378036499">
        <ele>179</ele>
        <time>2003-03-16T10:10:29Z</time>
      </trkpt>
      <trkpt lat="44.303226470947266" lon="11.242661476135254">
        <ele>174</ele>
        <time>2003-03-16T10:10:33Z</time>
      </trkpt>
      <trkpt lat="44.303183639422059" lon="11.24276876449585">
        <ele>173</ele>
        <time>2003-03-16T10:10:34Z</time>
      </trkpt>
      <trkpt lat="44.303033435717225" lon="11.243026340380311">
        <ele>170</ele>
        <time>2003-03-16T10:10:37Z</time>
      </trkpt>
      <trkpt lat="44.302990436553955" lon="11.243133461102843">
        <ele>169</ele>
        <time>2003-03-16T10:10:39Z</time>
      </trkpt>
      <trkpt lat="44.302926063537598" lon="11.243219375610352">
        <ele>168</ele>
        <time>2003-03-16T10:10:52Z</time>
      </trkpt>
      <trkpt lat="44.302883064374328" lon="11.243219375610352">
        <ele>167</ele>
        <time>2003-03-16T10:11:15Z</time>
      </trkpt>
      <trkpt lat="44.302883064374328" lon="11.243283664807677">
        <ele>170</ele>
        <time>2003-03-16T10:16:26Z</time>
      </trkpt>
      <trkpt lat="44.303440963849425" lon="11.243841564282775">
        <ele>170</ele>
        <time>2003-03-16T10:16:47Z</time>
      </trkpt>
      <trkpt lat="44.303784370422363" lon="11.244614124298096">
        <ele>171</ele>
        <time>2003-03-16T10:17:04Z</time>
      </trkpt>
      <trkpt lat="44.303998863324523" lon="11.244828701019287">
        <ele>170</ele>
        <time>2003-03-16T10:17:09Z</time>
      </trkpt>
      <trkpt lat="44.30412769317627" lon="11.244978904724121">
        <ele>170</ele>
        <time>2003-03-16T10:17:12Z</time>
      </trkpt>
      <trkpt lat="44.304814338684082" lon="11.245708465576172">
        <ele>167</ele>
        <time>2003-03-16T10:17:32Z</time>
      </trkpt>
      <trkpt lat="44.305737018585205" lon="11.245622634887695">
        <ele>165</ele>
        <time>2003-03-16T10:17:45Z</time>
      </trkpt>
      <trkpt lat="44.306552410125732" lon="11.246223365888">
        <ele>166</ele>
        <time>2003-03-16T10:18:02Z</time>
      </trkpt>
      <trkpt lat="44.306595325469971" lon="11.246309280395508">
        <ele>167</ele>
        <time>2003-03-16T10:18:04Z</time>
      </trkpt>
      <trkpt lat="44.306702613830566" lon="11.246459484100342">
        <ele>167</ele>
        <time>2003-03-16T10:18:08Z</time>
      </trkpt>
      <trkpt lat="44.307281970977783" lon="11.246845722198486">
        <ele>170</ele>
        <time>2003-03-16T10:18:25Z</time>
      </trkpt>
      <trkpt lat="44.307560920715332" lon="11.247339164838195">
        <ele>172</ele>
        <time>2003-03-16T10:18:40Z</time>
      </trkpt>
      <trkpt lat="44.307496463879943" lon="11.247940063476563">
        <ele>174</ele>
        <time>2003-03-16T10:18:55Z</time>
      </trkpt>
      <trkpt lat="44.30764683522284" lon="11.248669624328613">
        <ele>176</ele>
        <time>2003-03-16T10:19:14Z</time>
      </trkpt>
      <trkpt lat="44.307754039764404" lon="11.249377727508545">
        <ele>177</ele>
        <time>2003-03-16T10:19:39Z</time>
      </trkpt>
      <trkpt lat="44.307925701141357" lon="11.249721134081483">
        <ele>176</ele>
        <time>2003-03-16T10:19:42Z</time>
      </trkpt>
      <trkpt lat="44.308011531829834" lon="11.249849796295166">
        <ele>174</ele>
        <time>2003-03-16T10:19:44Z</time>
      </trkpt>
      <trkpt lat="44.308269023895264" lon="11.250171661376953">
        <ele>172</ele>
        <time>2003-03-16T10:19:48Z</time>
      </trkpt>
      <trkpt lat="44.308419227600098" lon="11.250386238098145">
        <ele>168</ele>
        <time>2003-03-16T10:19:51Z</time>
      </trkpt>
      <trkpt lat="44.308505058288574" lon="11.250472068786621">
        <ele>168</ele>
        <time>2003-03-16T10:19:52Z</time>
      </trkpt>
      <trkpt lat="44.308741092681885" lon="11.250686561688781">
        <ele>165</ele>
        <time>2003-03-16T10:19:55Z</time>
      </trkpt>
      <trkpt lat="44.308977127075195" lon="11.250922679901123">
        <ele>161</ele>
        <time>2003-03-16T10:19:58Z</time>
      </trkpt>
      <trkpt lat="44.309170162305236" lon="11.251094341278076">
        <ele>158</ele>
        <time>2003-03-16T10:20:05Z</time>
      </trkpt>
      <trkpt lat="44.309277534484863" lon="11.251180171966553">
        <ele>158</ele>
        <time>2003-03-16T10:20:10Z</time>
      </trkpt>
      <trkpt lat="44.309535026550293" lon="11.250643730163574">
        <ele>161</ele>
        <time>2003-03-16T10:20:17Z</time>
      </trkpt>
      <trkpt lat="44.310007095336914" lon="11.250386238098145">
        <ele>161</ele>
        <time>2003-03-16T10:20:31Z</time>
      </trkpt>
      <trkpt lat="44.310715198516846" lon="11.250536441802979">
        <ele>160</ele>
        <time>2003-03-16T10:20:46Z</time>
      </trkpt>
      <trkpt lat="44.310779571533203" lon="11.250600814819336">
        <ele>160</ele>
        <time>2003-03-16T10:20:48Z</time>
      </trkpt>
      <trkpt lat="44.311294639483094" lon="11.252124309539795">
        <ele>160</ele>
        <time>2003-03-16T10:21:08Z</time>
      </trkpt>
      <trkpt lat="44.312131404876709" lon="11.253089904785156">
        <ele>159</ele>
        <time>2003-03-16T10:21:34Z</time>
      </trkpt>
      <trkpt lat="44.312753677368164" lon="11.254055500030518">
        <ele>157</ele>
        <time>2003-03-16T10:21:52Z</time>
      </trkpt>
      <trkpt lat="44.314212799072266" lon="11.255257129669189">
        <ele>154</ele>
        <time>2003-03-16T10:22:18Z</time>
      </trkpt>
      <trkpt lat="44.31511402130127" lon="11.256115436553955">
        <ele>151</ele>
        <time>2003-03-16T10:22:38Z</time>
      </trkpt>
      <trkpt lat="44.315285682678223" lon="11.256308639422059">
        <ele>148</ele>
        <time>2003-03-16T10:22:43Z</time>
      </trkpt>
      <trkpt lat="44.315371513366699" lon="11.256415760144591">
        <ele>147</ele>
        <time>2003-03-16T10:22:50Z</time>
      </trkpt>
      <trkpt lat="44.315457260236144" lon="11.256351470947266">
        <ele>148</ele>
        <time>2003-03-16T10:22:54Z</time>
      </trkpt>
      <trkpt lat="44.316058158874512" lon="11.255578994750977">
        <ele>148</ele>
        <time>2003-03-16T10:23:12Z</time>
      </trkpt>
      <trkpt lat="44.316380023956299" lon="11.255364418029785">
        <ele>148</ele>
        <time>2003-03-16T10:23:19Z</time>
      </trkpt>
      <trkpt lat="44.316787719726563" lon="11.255364418029785">
        <ele>148</ele>
        <time>2003-03-16T10:23:27Z</time>
      </trkpt>
      <trkpt lat="44.317023837938905" lon="11.255600536242127">
        <ele>148</ele>
        <time>2003-03-16T10:23:32Z</time>
      </trkpt>
      <trkpt lat="44.317839061841369" lon="11.257209777832031">
        <ele>147</ele>
        <time>2003-03-16T10:23:55Z</time>
      </trkpt>
      <trkpt lat="44.31859016418457" lon="11.25873327255249">
        <ele>147</ele>
        <time>2003-03-16T10:24:17Z</time>
      </trkpt>
      <trkpt lat="44.319298267364502" lon="11.259419918060303">
        <ele>147</ele>
        <time>2003-03-16T10:24:34Z</time>
      </trkpt>
      <trkpt lat="44.319469928741455" lon="11.259505664929748">
        <ele>146</ele>
        <time>2003-03-16T10:24:37Z</time>
      </trkpt>
      <trkpt lat="44.31959867477417" lon="11.259591579437256">
        <ele>146</ele>
        <time>2003-03-16T10:24:39Z</time>
      </trkpt>
      <trkpt lat="44.3198561668396" lon="11.259720325469971">
        <ele>145</ele>
        <time>2003-03-16T10:24:43Z</time>
      </trkpt>
      <trkpt lat="44.321615695953369" lon="11.260600090026855">
        <ele>143</ele>
        <time>2003-03-16T10:25:11Z</time>
      </trkpt>
      <trkpt lat="44.323246479034424" lon="11.261672973632813">
        <ele>143</ele>
        <time>2003-03-16T10:25:37Z</time>
      </trkpt>
      <trkpt lat="44.323654174804688" lon="11.261909008026123">
        <ele>142</ele>
        <time>2003-03-16T10:25:44Z</time>
      </trkpt>
      <trkpt lat="44.324920177459717" lon="11.262123584747314">
        <ele>140</ele>
        <time>2003-03-16T10:26:06Z</time>
      </trkpt>
      <trkpt lat="44.325971603393555" lon="11.262252330780029">
        <ele>141</ele>
        <time>2003-03-16T10:26:24Z</time>
      </trkpt>
      <trkpt lat="44.326465129852295" lon="11.262574195861816">
        <ele>142</ele>
        <time>2003-03-16T10:26:35Z</time>
      </trkpt>
      <trkpt lat="44.327065860852599" lon="11.263561164960265">
        <ele>141</ele>
        <time>2003-03-16T10:26:51Z</time>
      </trkpt>
      <trkpt lat="44.327452182769775" lon="11.264398097991943">
        <ele>139</ele>
        <time>2003-03-16T10:27:02Z</time>
      </trkpt>
      <trkpt lat="44.328224658966064" lon="11.26598596572876">
        <ele>137</ele>
        <time>2003-03-16T10:27:23Z</time>
      </trkpt>
      <trkpt lat="44.32884693145752" lon="11.267080307006836">
        <ele>138</ele>
        <time>2003-03-16T10:27:38Z</time>
      </trkpt>
      <trkpt lat="44.329490661621094" lon="11.268367767333984">
        <ele>137</ele>
        <time>2003-03-16T10:27:56Z</time>
      </trkpt>
      <trkpt lat="44.330005561932921" lon="11.269376277923584">
        <ele>134</ele>
        <time>2003-03-16T10:28:10Z</time>
      </trkpt>
      <trkpt lat="44.330220222473145" lon="11.269783973693848">
        <ele>133</ele>
        <time>2003-03-16T10:28:16Z</time>
      </trkpt>
      <trkpt lat="44.330906867980957" lon="11.270191669464111">
        <ele>133</ele>
        <time>2003-03-16T10:28:31Z</time>
      </trkpt>
      <trkpt lat="44.332044124603271" lon="11.270320415496826">
        <ele>133</ele>
        <time>2003-03-16T10:28:53Z</time>
      </trkpt>
      <trkpt lat="44.332923889160156" lon="11.270105838775635">
        <ele>135</ele>
        <time>2003-03-16T10:29:08Z</time>
      </trkpt>
      <trkpt lat="44.334404468536377" lon="11.269655227661133">
        <ele>133</ele>
        <time>2003-03-16T10:29:26Z</time>
      </trkpt>
      <trkpt lat="44.335606098175049" lon="11.269547939300537">
        <ele>132</ele>
        <time>2003-03-16T10:29:41Z</time>
      </trkpt>
      <trkpt lat="44.336700439453125" lon="11.269161701202393">
        <ele>133</ele>
        <time>2003-03-16T10:29:57Z</time>
      </trkpt>
      <trkpt lat="44.338095188140869" lon="11.268410682678223">
        <ele>133</ele>
        <time>2003-03-16T10:30:18Z</time>
      </trkpt>
      <trkpt lat="44.339447021484375" lon="11.26823902130127">
        <ele>131</ele>
        <time>2003-03-16T10:30:34Z</time>
      </trkpt>
      <trkpt lat="44.339725971221924" lon="11.268281936645508">
        <ele>129</ele>
        <time>2003-03-16T10:30:37Z</time>
      </trkpt>
      <trkpt lat="44.340841770172119" lon="11.268754005432129">
        <ele>126</ele>
        <time>2003-03-16T10:30:49Z</time>
      </trkpt>
      <trkpt lat="44.342343807220459" lon="11.269011497497559">
        <ele>126</ele>
        <time>2003-03-16T10:31:06Z</time>
      </trkpt>
      <trkpt lat="44.343953132629395" lon="11.268818378448486">
        <ele>125</ele>
        <time>2003-03-16T10:31:24Z</time>
      </trkpt>
      <trkpt lat="44.345820033922791" lon="11.268560886383057">
        <ele>123</ele>
        <time>2003-03-16T10:31:45Z</time>
      </trkpt>
      <trkpt lat="44.347536563873291" lon="11.268281936645508">
        <ele>122</ele>
        <time>2003-03-16T10:32:05Z</time>
      </trkpt>
      <trkpt lat="44.349574958905578" lon="11.267831325531006">
        <ele>121</ele>
        <time>2003-03-16T10:32:30Z</time>
      </trkpt>
      <trkpt lat="44.350712299346924" lon="11.267509460449219">
        <ele>123</ele>
        <time>2003-03-16T10:32:45Z</time>
      </trkpt>
      <trkpt lat="44.351935386657715" lon="11.266844272613525">
        <ele>120</ele>
        <time>2003-03-16T10:33:06Z</time>
      </trkpt>
      <trkpt lat="44.353222763165832" lon="11.266393661499023">
        <ele>117</ele>
        <time>2003-03-16T10:33:24Z</time>
      </trkpt>
      <trkpt lat="44.353287220001221" lon="11.266350662335753">
        <ele>117</ele>
        <time>2003-03-16T10:33:25Z</time>
      </trkpt>
      <trkpt lat="44.35455322265625" lon="11.265685558319092">
        <ele>116</ele>
        <time>2003-03-16T10:33:46Z</time>
      </trkpt>
      <trkpt lat="44.35605525970459" lon="11.264891624450684">
        <ele>115</ele>
        <time>2003-03-16T10:34:12Z</time>
      </trkpt>
      <trkpt lat="44.357278263196349" lon="11.264247894287109">
        <ele>114</ele>
        <time>2003-03-16T10:34:34Z</time>
      </trkpt>
      <trkpt lat="44.35884484089911" lon="11.263453960418701">
        <ele>113</ele>
        <time>2003-03-16T10:35:02Z</time>
      </trkpt>
      <trkpt lat="44.359874725341797" lon="11.26347541809082">
        <ele>113</ele>
        <time>2003-03-16T10:35:20Z</time>
      </trkpt>
      <trkpt lat="44.361162185668945" lon="11.263518333435059">
        <ele>112</ele>
        <time>2003-03-16T10:35:41Z</time>
      </trkpt>
      <trkpt lat="44.361505508422852" lon="11.263368129730225">
        <ele>113</ele>
        <time>2003-03-16T10:35:47Z</time>
      </trkpt>
      <trkpt lat="44.362664222717285" lon="11.262810230255127">
        <ele>113</ele>
        <time>2003-03-16T10:36:08Z</time>
      </trkpt>
      <trkpt lat="44.363844394683838" lon="11.262466907501221">
        <ele>111</ele>
        <time>2003-03-16T10:36:27Z</time>
      </trkpt>
      <trkpt lat="44.364724159240723" lon="11.261651515960693">
        <ele>109</ele>
        <time>2003-03-16T10:36:44Z</time>
      </trkpt>
      <trkpt lat="44.365861415863037" lon="11.261007785797119">
        <ele>108</ele>
        <time>2003-03-16T10:37:06Z</time>
      </trkpt>
      <trkpt lat="44.366891384124756" lon="11.260514259338379">
        <ele>109</ele>
        <time>2003-03-16T10:37:26Z</time>
      </trkpt>
      <trkpt lat="44.3672776222229" lon="11.260256767272949">
        <ele>109</ele>
        <time>2003-03-16T10:37:34Z</time>
      </trkpt>
      <trkpt lat="44.368371963500977" lon="11.259677410125732">
        <ele>109</ele>
        <time>2003-03-16T10:37:54Z</time>
      </trkpt>
      <trkpt lat="44.368822574615479" lon="11.259505664929748">
        <ele>109</ele>
        <time>2003-03-16T10:38:02Z</time>
      </trkpt>
      <trkpt lat="44.369101524353027" lon="11.259205341339111">
        <ele>110</ele>
        <time>2003-03-16T10:38:08Z</time>
      </trkpt>
      <trkpt lat="44.369122982025146" lon="11.259055137634277">
        <ele>112</ele>
        <time>2003-03-16T10:38:10Z</time>
      </trkpt>
      <trkpt lat="44.369702339172363" lon="11.257810592651367">
        <ele>113</ele>
        <time>2003-03-16T10:38:30Z</time>
      </trkpt>
      <trkpt lat="44.370153034105897" lon="11.256844997406006">
        <ele>111</ele>
        <time>2003-03-16T10:38:45Z</time>
      </trkpt>
      <trkpt lat="44.370582103729248" lon="11.255772113800049">
        <ele>112</ele>
        <time>2003-03-16T10:39:03Z</time>
      </trkpt>
      <trkpt lat="44.371247291564941" lon="11.254227161407471">
        <ele>110</ele>
        <time>2003-03-16T10:39:26Z</time>
      </trkpt>
      <trkpt lat="44.371354579925537" lon="11.253926837816834">
        <ele>110</ele>
        <time>2003-03-16T10:39:30Z</time>
      </trkpt>
      <trkpt lat="44.372148513793945" lon="11.253197193145752">
        <ele>110</ele>
        <time>2003-03-16T10:39:45Z</time>
      </trkpt>
      <trkpt lat="44.372191429138184" lon="11.253132820129395">
        <ele>114</ele>
        <time>2002-10-27T11:10:38Z</time>
      </trkpt>
      <trkpt lat="44.372534835711122" lon="11.253046989440918">
        <ele>115</ele>
        <time>2002-10-27T11:10:47Z</time>
      </trkpt>
      <trkpt lat="44.373564720153809" lon="11.252639293670654">
        <ele>114</ele>
        <time>2002-10-27T11:11:08Z</time>
      </trkpt>
      <trkpt lat="44.374015331268311" lon="11.252381801605225">
        <ele>114</ele>
        <time>2002-10-27T11:11:18Z</time>
      </trkpt>
      <trkpt lat="44.374980926513672" lon="11.252059936523437">
        <ele>113</ele>
        <time>2002-10-27T11:11:39Z</time>
      </trkpt>
      <trkpt lat="44.375345706939697" lon="11.252017021179199">
        <ele>113</ele>
        <time>2002-10-27T11:11:46Z</time>
      </trkpt>
      <trkpt lat="44.376204013824463" lon="11.252403259277344">
        <ele>112</ele>
        <time>2002-10-27T11:12:02Z</time>
      </trkpt>
      <trkpt lat="44.377233982086182" lon="11.25248908996582">
        <ele>113</ele>
        <time>2002-10-27T11:12:21Z</time>
      </trkpt>
      <trkpt lat="44.37828540802002" lon="11.252081394195557">
        <ele>113</ele>
        <time>2002-10-27T11:12:38Z</time>
      </trkpt>
      <trkpt lat="44.379465579986572" lon="11.250879764556885">
        <ele>113</ele>
        <time>2002-10-27T11:12:59Z</time>
      </trkpt>
      <trkpt lat="44.379808902740479" lon="11.250836765393615">
        <ele>113</ele>
        <time>2002-10-27T11:13:04Z</time>
      </trkpt>
      <trkpt lat="44.380581378936768" lon="11.251201629638672">
        <ele>113</ele>
        <time>2002-10-27T11:13:16Z</time>
      </trkpt>
      <trkpt lat="44.381568431854248" lon="11.251072883605957">
        <ele>113</ele>
        <time>2002-10-27T11:13:31Z</time>
      </trkpt>
      <trkpt lat="44.382383823394775" lon="11.250536441802979">
        <ele>113</ele>
        <time>2002-10-27T11:13:45Z</time>
      </trkpt>
      <trkpt lat="44.383113384246826" lon="11.249763965606689">
        <ele>115</ele>
        <time>2002-10-27T11:14:00Z</time>
      </trkpt>
      <trkpt lat="44.383993064984679" lon="11.249270439147949">
        <ele>118</ele>
        <time>2002-10-27T11:14:18Z</time>
      </trkpt>
      <trkpt lat="44.384744167327881" lon="11.248755538836122">
        <ele>119</ele>
        <time>2002-10-27T11:14:35Z</time>
      </trkpt>
      <trkpt lat="44.385688304901123" lon="11.248347759246826">
        <ele>120</ele>
        <time>2002-10-27T11:14:55Z</time>
      </trkpt>
      <trkpt lat="44.38626766204834" lon="11.24824047088623">
        <ele>124</ele>
        <time>2002-10-27T11:15:09Z</time>
      </trkpt>
      <trkpt lat="44.387061595916748" lon="11.247854232788086">
        <ele>122</ele>
        <time>2002-10-27T11:15:26Z</time>
      </trkpt>
      <trkpt lat="44.387855529785156" lon="11.247489536181092">
        <ele>121</ele>
        <time>2002-10-27T11:15:41Z</time>
      </trkpt>
      <trkpt lat="44.388091564178467" lon="11.247553825378418">
        <ele>120</ele>
        <time>2002-10-27T11:15:45Z</time>
      </trkpt>
      <trkpt lat="44.38845626078546" lon="11.247339164838195">
        <ele>121</ele>
        <time>2002-10-27T11:15:52Z</time>
      </trkpt>
      <trkpt lat="44.388670921325684" lon="11.247103214263916">
        <ele>120</ele>
        <time>2002-10-27T11:15:56Z</time>
      </trkpt>
      <trkpt lat="44.389915466308594" lon="11.246545314788818">
        <ele>121</ele>
        <time>2002-10-27T11:16:14Z</time>
      </trkpt>
      <trkpt lat="44.391117095947266" lon="11.246051788330078">
        <ele>121</ele>
        <time>2002-10-27T11:16:34Z</time>
      </trkpt>
      <trkpt lat="44.391574915498495" lon="11.245981212705374">
        <ele>122</ele>
        <time>1989-12-31T00:00:00Z</time>
      </trkpt>
      <trkpt lat="44.391975402832031" lon="11.24626636505127">
        <ele>122</ele>
        <time>2002-10-27T11:16:51Z</time>
      </trkpt>
      <trkpt lat="44.392919540405273" lon="11.246695518493652">
        <ele>122</ele>
        <time>2002-10-27T11:17:11Z</time>
      </trkpt>
      <trkpt lat="44.393026828765869" lon="11.246845722198486">
        <ele>122</ele>
        <time>2002-10-27T11:17:15Z</time>
      </trkpt>
      <trkpt lat="44.392833709716797" lon="11.247425079345703">
        <ele>119</ele>
        <time>2002-10-27T11:17:29Z</time>
      </trkpt>
    </trkseg>
  </trk>

  <trk>
    <name>Track 002</name>
    <trkseg>
      <trkpt lat="44.312263503670692" lon="11.22201818972826">
        <ele>460</ele>
        <time>1989-12-31T00:00:00Z</time>
      </trkpt>
      <trkpt lat="44.312388896942139" lon="11.22174016200006">
        <ele>460</ele>
        <time>2002-10-27T10:00:07Z</time>
      </trkpt>
      <trkpt lat="44.312474727630615" lon="11.221654415130615">
        <ele>463</ele>
        <time>2002-10-27T10:00:17Z</time>
      </trkpt>
      <trkpt lat="44.31260347366333" lon="11.221568584442139">
        <ele>466</ele>
        <time>2002-10-27T10:00:27Z</time>
      </trkpt>
      <trkpt lat="44.312732219696045" lon="11.221589958295226">
        <ele>469</ele>
        <time>2002-10-27T10:00:37Z</time>
      </trkpt>
      <trkpt lat="44.312882423400879" lon="11.221654415130615">
        <ele>472</ele>
        <time>2002-10-27T10:00:50Z</time>
      </trkpt>
      <trkpt lat="44.312968337908387" lon="11.221675872802734">
        <ele>475</ele>
        <time>2002-10-27T10:00:58Z</time>
      </trkpt>
      <trkpt lat="44.313118541613221" lon="11.221611499786377">
        <ele>478</ele>
        <time>2002-10-27T10:01:11Z</time>
      </trkpt>
      <trkpt lat="44.313311576843262" lon="11.221568584442139">
        <ele>481</ele>
        <time>2002-10-27T10:01:28Z</time>
      </trkpt>
      <trkpt lat="44.313375866040587" lon="11.221654415130615">
        <ele>482</ele>
        <time>2002-10-27T10:01:37Z</time>
      </trkpt>
      <trkpt lat="44.313483238220215" lon="11.22174016200006">
        <ele>480</ele>
        <time>2002-10-27T10:01:53Z</time>
      </trkpt>
      <trkpt lat="44.313654899597168" lon="11.221911907196045">
        <ele>477</ele>
        <time>2002-10-27T10:01:58Z</time>
      </trkpt>
      <trkpt lat="44.31384801864624" lon="11.222105026245117">
        <ele>471</ele>
        <time>2002-10-27T10:02:01Z</time>
      </trkpt>
      <trkpt lat="44.313955307006836" lon="11.222169399261475">
        <ele>469</ele>
        <time>2002-10-27T10:02:03Z</time>
      </trkpt>
      <trkpt lat="44.314126968383789" lon="11.222126483917236">
        <ele>467</ele>
        <time>2002-10-27T10:02:06Z</time>
      </trkpt>
      <trkpt lat="44.314169883728027" lon="11.222083568572998">
        <ele>467</ele>
        <time>2002-10-27T10:02:07Z</time>
      </trkpt>
      <trkpt lat="44.3143630027771" lon="11.221933364868164">
        <ele>464</ele>
        <time>2002-10-27T10:02:11Z</time>
      </trkpt>
      <trkpt lat="44.31459903717041" lon="11.221954822540283">
        <ele>458</ele>
        <time>2002-10-27T10:02:15Z</time>
      </trkpt>
      <trkpt lat="44.314727783203125" lon="11.221976280212402">
        <ele>454</ele>
        <time>2002-10-27T10:02:17Z</time>
      </trkpt>
      <trkpt lat="44.314792240038514" lon="11.221997737884521">
        <ele>453</ele>
        <time>2002-10-27T10:02:18Z</time>
      </trkpt>
      <trkpt lat="44.314920902252197" lon="11.221997737884521">
        <ele>450</ele>
        <time>2002-10-27T10:02:20Z</time>
      </trkpt>
      <trkpt lat="44.31509256362915" lon="11.222083568572998">
        <ele>446</ele>
        <time>2002-10-27T10:02:23Z</time>
      </trkpt>
      <trkpt lat="44.315156936645508" lon="11.222126483917236">
        <ele>444</ele>
        <time>2002-10-27T10:02:24Z</time>
      </trkpt>
      <trkpt lat="44.315199935808778" lon="11.222233772277832">
        <ele>443</ele>
        <time>2002-10-27T10:02:26Z</time>
      </trkpt>
      <trkpt lat="44.315156936645508" lon="11.222577095031738">
        <ele>442</ele>
        <time>2002-10-27T10:02:32Z</time>
      </trkpt>
      <trkpt lat="44.315135478973389" lon="11.222984790802002">
        <ele>445</ele>
        <time>2002-10-27T10:02:40Z</time>
      </trkpt>
      <trkpt lat="44.315135478973389" lon="11.22302770614624">
        <ele>445</ele>
        <time>2002-10-27T10:02:41Z</time>
      </trkpt>
      <trkpt lat="44.315478801727295" lon="11.223928928375244">
        <ele>448</ele>
        <time>2002-10-27T10:03:05Z</time>
      </trkpt>
      <trkpt lat="44.315972328186035" lon="11.224164962768555">
        <ele>450</ele>
        <time>2002-10-27T10:03:27Z</time>
      </trkpt>
      <trkpt lat="44.316015159711242" lon="11.224336624145508">
        <ele>450</ele>
        <time>2002-10-27T10:03:33Z</time>
      </trkpt>
      <trkpt lat="44.316079616546631" lon="11.225109100341797">
        <ele>452</ele>
        <time>2002-10-27T10:03:44Z</time>
      </trkpt>
      <trkpt lat="44.316143989562988" lon="11.22523776255548">
        <ele>452</ele>
        <time>2002-10-27T10:03:48Z</time>
      </trkpt>
      <trkpt lat="44.316422939300537" lon="11.225259304046631">
        <ele>453</ele>
        <time>2002-10-27T10:03:59Z</time>
      </trkpt>
      <trkpt lat="44.316487312316895" lon="11.225709915161133">
        <ele>449</ele>
        <time>2002-10-27T10:04:28Z</time>
      </trkpt>
      <trkpt lat="44.316444396972656" lon="11.225881576538086">
        <ele>450</ele>
        <time>2002-10-27T10:04:34Z</time>
      </trkpt>
      <trkpt lat="44.316444396972656" lon="11.225924491882324">
        <ele>450</ele>
        <time>2002-10-27T10:04:35Z</time>
      </trkpt>
      <trkpt lat="44.316508769989014" lon="11.226482391357422">
        <ele>450</ele>
        <time>2002-10-27T10:04:48Z</time>
      </trkpt>
      <trkpt lat="44.316637516021729" lon="11.226739883422852">
        <ele>448</ele>
        <time>2002-10-27T10:04:52Z</time>
      </trkpt>
      <trkpt lat="44.316766262054443" lon="11.226975917816162">
        <ele>446</ele>
        <time>2002-10-27T10:04:55Z</time>
      </trkpt>
      <trkpt lat="44.317002296447754" lon="11.227512359619141">
        <ele>442</ele>
        <time>2002-10-27T10:05:01Z</time>
      </trkpt>
      <trkpt lat="44.31710958480835" lon="11.227748394012451">
        <ele>438</ele>
        <time>2002-10-27T10:05:04Z</time>
      </trkpt>
      <trkpt lat="44.31710958480835" lon="11.227877140045166">
        <ele>437</ele>
        <time>2002-10-27T10:05:07Z</time>
      </trkpt>
      <trkpt lat="44.316937923431396" lon="11.227984428405762">
        <ele>434</ele>
        <time>2002-10-27T10:05:11Z</time>
      </trkpt>
      <trkpt lat="44.316766262054443" lon="11.228091716766357">
        <ele>429</ele>
        <time>2002-10-27T10:05:14Z</time>
      </trkpt>
      <trkpt lat="44.316744804382324" lon="11.228113174438477">
        <ele>429</ele>
        <time>2002-10-27T10:05:15Z</time>
      </trkpt>
      <trkpt lat="44.316830635070801" lon="11.228134632110596">
        <ele>428</ele>
        <time>2002-10-27T10:05:24Z</time>
      </trkpt>
      <trkpt lat="44.317023837938905" lon="11.228005886077881">
        <ele>428</ele>
        <time>2002-10-27T10:05:47Z</time>
      </trkpt>
      <trkpt lat="44.317216873168945" lon="11.228027259930968">
        <ele>428</ele>
        <time>2002-10-27T10:06:04Z</time>
      </trkpt>
      <trkpt lat="44.317517280578613" lon="11.228113174438477">
        <ele>426</ele>
        <time>2002-10-27T10:06:15Z</time>
      </trkpt>
      <trkpt lat="44.317667484283447" lon="11.228349208831787">
        <ele>423</ele>
        <time>2002-10-27T10:06:19Z</time>
      </trkpt>
      <trkpt lat="44.317710399627686" lon="11.228456497192383">
        <ele>421</ele>
        <time>2002-10-27T10:06:20Z</time>
      </trkpt>
      <trkpt lat="44.317903518676758" lon="11.228842735290527">
        <ele>414</ele>
        <time>2002-10-27T10:06:24Z</time>
      </trkpt>
      <trkpt lat="44.318032264709473" lon="11.22901439666748">
        <ele>411</ele>
        <time>2002-10-27T10:06:26Z</time>
      </trkpt>
      <trkpt lat="44.318203926086426" lon="11.229143058881164">
        <ele>407</ele>
        <time>2002-10-27T10:06:29Z</time>
      </trkpt>
      <trkpt lat="44.318718910217285" lon="11.22901439666748">
        <ele>406</ele>
        <time>2002-10-27T10:06:36Z</time>
      </trkpt>
      <trkpt lat="44.318976402282715" lon="11.22901439666748">
        <ele>405</ele>
        <time>2002-10-27T10:06:41Z</time>
      </trkpt>
      <trkpt lat="44.319083690643311" lon="11.22901439666748">
        <ele>405</ele>
        <time>2002-10-27T10:06:43Z</time>
      </trkpt>
      <trkpt lat="44.319491386413574" lon="11.229550838470459">
        <ele>406</ele>
        <time>2002-10-27T10:06:58Z</time>
      </trkpt>
      <trkpt lat="44.319641590118408" lon="11.229615211486816">
        <ele>407</ele>
        <time>2002-10-27T10:07:03Z</time>
      </trkpt>
      <trkpt lat="44.319941997528076" lon="11.22978687286377">
        <ele>411</ele>
        <time>2002-10-27T10:07:15Z</time>
      </trkpt>
      <trkpt lat="44.319963539019227" lon="11.229872703552246">
        <ele>413</ele>
        <time>2002-10-27T10:07:23Z</time>
      </trkpt>
      <trkpt lat="44.319920539855957" lon="11.230065822601318">
        <ele>416</ele>
        <time>2002-10-27T10:07:32Z</time>
      </trkpt>
      <trkpt lat="44.3198561668396" lon="11.230258941650391">
        <ele>419</ele>
        <time>2002-10-27T10:07:44Z</time>
      </trkpt>
      <trkpt lat="44.319791793823242" lon="11.23051643371582">
        <ele>422</ele>
        <time>2002-10-27T10:08:00Z</time>
      </trkpt>
      <trkpt lat="44.319813335314393" lon="11.230816841125488">
        <ele>424</ele>
        <time>2002-10-27T10:08:18Z</time>
      </trkpt>
      <trkpt lat="44.319941997528076" lon="11.231288909912109">
        <ele>426</ele>
        <time>2002-10-27T10:08:45Z</time>
      </trkpt>
      <trkpt lat="44.32009220123291" lon="11.231696605682373">
        <ele>425</ele>
        <time>2002-10-27T10:09:00Z</time>
      </trkpt>
      <trkpt lat="44.320714473724365" lon="11.232490539550781">
        <ele>422</ele>
        <time>2002-10-27T10:09:14Z</time>
      </trkpt>
      <trkpt lat="44.32084321975708" lon="11.232683658599854">
        <ele>421</ele>
        <time>2002-10-27T10:09:17Z</time>
      </trkpt>
      <trkpt lat="44.321165084838867" lon="11.232898235321045">
        <ele>417</ele>
        <time>2002-10-27T10:09:22Z</time>
      </trkpt>
      <trkpt lat="44.321315288543701" lon="11.233048439025879">
        <ele>415</ele>
        <time>2002-10-27T10:09:24Z</time>
      </trkpt>
      <trkpt lat="44.321615695953369" lon="11.233584880828857">
        <ele>413</ele>
        <time>2002-10-27T10:09:30Z</time>
      </trkpt>
      <trkpt lat="44.321701526641846" lon="11.233713626861572">
        <ele>413</ele>
        <time>2002-10-27T10:09:32Z</time>
      </trkpt>
      <trkpt lat="44.321701526641846" lon="11.234250068664551">
        <ele>410</ele>
        <time>2002-10-27T10:09:42Z</time>
      </trkpt>
      <trkpt lat="44.321701526641846" lon="11.234335899353027">
        <ele>408</ele>
        <time>2002-10-27T10:09:43Z</time>
      </trkpt>
      <trkpt lat="44.321722984313965" lon="11.234657764434814">
        <ele>403</ele>
        <time>2002-10-27T10:09:47Z</time>
      </trkpt>
      <trkpt lat="44.321701526641846" lon="11.234765136614442">
        <ele>402</ele>
        <time>2002-10-27T10:09:49Z</time>
      </trkpt>
      <trkpt lat="44.321658611297607" lon="11.234786510467529">
        <ele>401</ele>
        <time>2002-10-27T10:09:50Z</time>
      </trkpt>
      <trkpt lat="44.321551322937012" lon="11.234743595123291">
        <ele>400</ele>
        <time>2002-10-27T10:09:52Z</time>
      </trkpt>
      <trkpt lat="44.321293830871582" lon="11.234486103057861">
        <ele>397</ele>
        <time>2002-10-27T10:09:56Z</time>
      </trkpt>
      <trkpt lat="44.321057796478271" lon="11.234292984008789">
        <ele>392</ele>
        <time>2002-10-27T10:10:00Z</time>
      </trkpt>
      <trkpt lat="44.320907592773438" lon="11.234314441680908">
        <ele>390</ele>
        <time>2002-10-27T10:10:02Z</time>
      </trkpt>
      <trkpt lat="44.320628559216857" lon="11.234486103057861">
        <ele>386</ele>
        <time>2002-10-27T10:10:06Z</time>
      </trkpt>
      <trkpt lat="44.320564270019531" lon="11.23450756072998">
        <ele>383</ele>
        <time>2002-10-27T10:10:07Z</time>
      </trkpt>
      <trkpt lat="44.320414066314697" lon="11.234679222106934">
        <ele>377</ele>
        <time>2002-10-27T10:10:10Z</time>
      </trkpt>
      <trkpt lat="44.320414066314697" lon="11.234765136614442">
        <ele>376</ele>
        <time>2002-10-27T10:10:11Z</time>
      </trkpt>
      <trkpt lat="44.320371234789491" lon="11.235108375549316">
        <ele>370</ele>
        <time>2002-10-27T10:10:15Z</time>
      </trkpt>
      <trkpt lat="44.320371234789491" lon="11.23528003692627">
        <ele>370</ele>
        <time>2002-10-27T10:10:17Z</time>
      </trkpt>
      <trkpt lat="44.320328235626221" lon="11.235537528991699">
        <ele>368</ele>
        <time>2002-10-27T10:10:20Z</time>
      </trkpt>
      <trkpt lat="44.320285320281982" lon="11.235687732696533">
        <ele>366</ele>
        <time>2002-10-27T10:10:23Z</time>
      </trkpt>
      <trkpt lat="44.319984912872314" lon="11.235923767089844">
        <ele>364</ele>
        <time>2002-10-27T10:10:28Z</time>
      </trkpt>
      <trkpt lat="44.319469928741455" lon="11.236352920532227">
        <ele>364</ele>
        <time>2002-10-27T10:10:44Z</time>
      </trkpt>
      <trkpt lat="44.319276809692383" lon="11.236653327941895">
        <ele>368</ele>
        <time>2002-10-27T10:10:56Z</time>
      </trkpt>
      <trkpt lat="44.319062232971191" lon="11.236889362335205">
        <ele>371</ele>
        <time>2002-10-27T10:11:08Z</time>
      </trkpt>
      <trkpt lat="44.318976402282715" lon="11.236996734514832">
        <ele>372</ele>
        <time>2002-10-27T10:11:13Z</time>
      </trkpt>
      <trkpt lat="44.318933486938477" lon="11.237146938219666">
        <ele>374</ele>
        <time>2002-10-27T10:11:20Z</time>
      </trkpt>
      <trkpt lat="44.318783283233643" lon="11.237533092498779">
        <ele>377</ele>
        <time>2002-10-27T10:11:38Z</time>
      </trkpt>
      <trkpt lat="44.318761825561523" lon="11.237576007843018">
        <ele>376</ele>
        <time>2002-10-27T10:11:42Z</time>
      </trkpt>
      <trkpt lat="44.318504333496094" lon="11.237468719482422">
        <ele>380</ele>
        <time>2002-10-27T10:11:53Z</time>
      </trkpt>
      <trkpt lat="44.318268299102783" lon="11.237597465515137">
        <ele>383</ele>
        <time>2002-10-27T10:12:07Z</time>
      </trkpt>
      <trkpt lat="44.318418502807617" lon="11.238133907318115">
        <ele>386</ele>
        <time>2002-10-27T10:12:28Z</time>
      </trkpt>
      <trkpt lat="44.31859016418457" lon="11.238713264465332">
        <ele>384</ele>
        <time>2002-10-27T10:12:49Z</time>
      </trkpt>
      <trkpt lat="44.318482875823975" lon="11.2400221824646">
        <ele>386</ele>
        <time>2002-10-27T10:13:13Z</time>
      </trkpt>
      <trkpt lat="44.318439960479736" lon="11.240343963727355">
        <ele>388</ele>
        <time>2002-10-27T10:13:21Z</time>
      </trkpt>
      <trkpt lat="44.318396961316466" lon="11.240472793579102">
        <ele>388</ele>
        <time>2002-10-27T10:13:25Z</time>
      </trkpt>
      <trkpt lat="44.31835412979126" lon="11.240730285644531">
        <ele>389</ele>
        <time>2002-10-27T10:13:42Z</time>
      </trkpt>
      <trkpt lat="44.31835412979126" lon="11.241030693054199">
        <ele>391</ele>
        <time>2002-10-27T10:14:52Z</time>
      </trkpt>
      <trkpt lat="44.318482875823975" lon="11.241116523742676">
        <ele>393</ele>
        <time>2002-10-27T10:15:11Z</time>
      </trkpt>
      <trkpt lat="44.318568706512451" lon="11.241245269775391">
        <ele>395</ele>
        <time>2002-10-27T10:15:22Z</time>
      </trkpt>
      <trkpt lat="44.318675994873047" lon="11.24145976267755">
        <ele>398</ele>
        <time>2002-10-27T10:15:34Z</time>
      </trkpt>
      <trkpt lat="44.318740367889404" lon="11.241524219512939">
        <ele>399</ele>
        <time>2002-10-27T10:15:39Z</time>
      </trkpt>
      <trkpt lat="44.318847740069032" lon="11.241438388824463">
        <ele>401</ele>
        <time>2002-10-27T10:15:47Z</time>
      </trkpt>
      <trkpt lat="44.318933486938477" lon="11.241288185119629">
        <ele>404</ele>
        <time>2002-10-27T10:15:59Z</time>
      </trkpt>
      <trkpt lat="44.318933486938477" lon="11.24126672744751">
        <ele>405</ele>
        <time>2002-10-27T10:16:01Z</time>
      </trkpt>
      <trkpt lat="44.318869113922119" lon="11.241095066070557">
        <ele>408</ele>
        <time>2002-10-27T10:16:11Z</time>
      </trkpt>
      <trkpt lat="44.318912029266357" lon="11.240859031677246">
        <ele>411</ele>
        <time>2002-10-27T10:16:27Z</time>
      </trkpt>
      <trkpt lat="44.318976402282715" lon="11.240880489349365">
        <ele>413</ele>
        <time>2002-10-27T10:16:37Z</time>
      </trkpt>
      <trkpt lat="44.319148063659668" lon="11.241159439086914">
        <ele>416</ele>
        <time>2002-10-27T10:17:02Z</time>
      </trkpt>
      <trkpt lat="44.319212436676025" lon="11.241245269775391">
        <ele>417</ele>
        <time>2002-10-27T10:17:10Z</time>
      </trkpt>
      <trkpt lat="44.319319725036621" lon="11.24145976267755">
        <ele>421</ele>
        <time>2002-10-27T10:17:26Z</time>
      </trkpt>
      <trkpt lat="44.319534301757813" lon="11.241695880889893">
        <ele>424</ele>
        <time>2002-10-27T10:17:43Z</time>
      </trkpt>
      <trkpt lat="44.31983470916748" lon="11.242146492004395">
        <ele>428</ele>
        <time>2002-10-27T10:18:04Z</time>
      </trkpt>
      <trkpt lat="44.319899082183838" lon="11.242232322692871">
        <ele>428</ele>
        <time>2002-10-27T10:18:09Z</time>
      </trkpt>
      <trkpt lat="44.319899082183838" lon="11.242275238037109">
        <ele>428</ele>
        <time>2002-10-27T10:18:12Z</time>
      </trkpt>
      <trkpt lat="44.320027828216553" lon="11.242682933807373">
        <ele>431</ele>
        <time>2002-10-27T10:18:34Z</time>
      </trkpt>
      <trkpt lat="44.320113658905029" lon="11.243026340380311">
        <ele>434</ele>
        <time>2002-10-27T10:18:51Z</time>
      </trkpt>
      <trkpt lat="44.320328235626221" lon="11.243283664807677">
        <ele>436</ele>
        <time>2002-10-27T10:19:06Z</time>
      </trkpt>
      <trkpt lat="44.320521438494325" lon="11.243605613708496">
        <ele>436</ele>
        <time>2002-10-27T10:19:23Z</time>
      </trkpt>
      <trkpt lat="44.32060718536377" lon="11.243927478790283">
        <ele>439</ele>
        <time>2002-10-27T10:19:36Z</time>
      </trkpt>
      <trkpt lat="44.320886135101318" lon="11.244142139330506">
        <ele>442</ele>
        <time>2002-10-27T10:19:53Z</time>
      </trkpt>
      <trkpt lat="44.321014881134033" lon="11.244313716888428">
        <ele>445</ele>
        <time>2002-10-27T10:20:08Z</time>
      </trkpt>
      <trkpt lat="44.321079337969422" lon="11.244442462921143">
        <ele>447</ele>
        <time>2002-10-27T10:20:17Z</time>
      </trkpt>
      <trkpt lat="44.321122169494629" lon="11.244614124298096">
        <ele>450</ele>
        <time>2002-10-27T10:20:29Z</time>
      </trkpt>
      <trkpt lat="44.321143627166748" lon="11.24476432800293">
        <ele>453</ele>
        <time>2002-10-27T10:20:39Z</time>
      </trkpt>
      <trkpt lat="44.321250915527344" lon="11.24500036239624">
        <ele>456</ele>
        <time>2002-10-27T10:20:55Z</time>
      </trkpt>
      <trkpt lat="44.321250915527344" lon="11.24500036239624">
        <ele>456</ele>
        <time>2002-10-27T10:20:56Z</time>
      </trkpt>
      <trkpt lat="44.321293830871582" lon="11.24495736323297">
        <ele>456</ele>
        <time>2002-10-27T10:21:00Z</time>
      </trkpt>
      <trkpt lat="44.321422576904297" lon="11.244463920593262">
        <ele>457</ele>
        <time>2002-10-27T10:21:19Z</time>
      </trkpt>
      <trkpt lat="44.321401119232178" lon="11.243970394134521">
        <ele>459</ele>
        <time>2002-10-27T10:21:41Z</time>
      </trkpt>
      <trkpt lat="44.321465492248535" lon="11.243605613708496">
        <ele>462</ele>
        <time>2002-10-27T10:21:59Z</time>
      </trkpt>
      <trkpt lat="44.321529865264893" lon="11.243369579315186">
        <ele>465</ele>
        <time>2002-10-27T10:22:14Z</time>
      </trkpt>
      <trkpt lat="44.321572780609131" lon="11.243176460266113">
        <ele>469</ele>
        <time>2002-10-27T10:22:25Z</time>
      </trkpt>
      <trkpt lat="44.321615695953369" lon="11.243112087249756">
        <ele>470</ele>
        <time>2002-10-27T10:22:30Z</time>
      </trkpt>
      <trkpt lat="44.321658611297607" lon="11.242940425872803">
        <ele>474</ele>
        <time>2002-10-27T10:22:41Z</time>
      </trkpt>
      <trkpt lat="44.321658611297607" lon="11.242790222167969">
        <ele>477</ele>
        <time>2002-10-27T10:22:51Z</time>
      </trkpt>
      <trkpt lat="44.321658611297607" lon="11.242554187774658">
        <ele>478</ele>
        <time>2002-10-27T10:23:07Z</time>
      </trkpt>
      <trkpt lat="44.32163723744452" lon="11.242210865020752">
        <ele>480</ele>
        <time>2002-10-27T10:23:23Z</time>
      </trkpt>
      <trkpt lat="44.32159423828125" lon="11.241760337725282">
        <ele>482</ele>
        <time>2002-10-27T10:23:42Z</time>
      </trkpt>
      <trkpt lat="44.321508407592773" lon="11.241309558972716">
        <ele>486</ele>
        <time>2002-10-27T10:24:00Z</time>
      </trkpt>
      <trkpt lat="44.321486866101623" lon="11.241202438250184">
        <ele>487</ele>
        <time>2002-10-27T10:24:04Z</time>
      </trkpt>
      <trkpt lat="44.321401119232178" lon="11.240794658660889">
        <ele>488</ele>
        <time>2002-10-27T10:24:24Z</time>
      </trkpt>
      <trkpt lat="44.321336662396789" lon="11.240601539611816">
        <ele>491</ele>
        <time>2002-10-27T10:24:35Z</time>
      </trkpt>
      <trkpt lat="44.321315288543701" lon="11.240408420562744">
        <ele>494</ele>
        <time>2002-10-27T10:24:43Z</time>
      </trkpt>
      <trkpt lat="44.321422576904297" lon="11.240365505218506">
        <ele>497</ele>
        <time>2002-10-27T10:24:56Z</time>
      </trkpt>
      <trkpt lat="44.321444034576416" lon="11.240386962890625">
        <ele>498</ele>
        <time>2002-10-27T10:25:00Z</time>
      </trkpt>
      <trkpt lat="44.321486866101623" lon="11.240494335070252">
        <ele>500</ele>
        <time>2002-10-27T10:25:08Z</time>
      </trkpt>
      <trkpt lat="44.321572780609131" lon="11.240601539611816">
        <ele>503</ele>
        <time>2002-10-27T10:25:20Z</time>
      </trkpt>
      <trkpt lat="44.321680068969727" lon="11.240665912628174">
        <ele>506</ele>
        <time>2002-10-27T10:25:30Z</time>
      </trkpt>
      <trkpt lat="44.321722984313965" lon="11.240708827972412">
        <ele>508</ele>
        <time>2002-10-27T10:25:36Z</time>
      </trkpt>
      <trkpt lat="44.321765899658203" lon="11.24077320098877">
        <ele>510</ele>
        <time>2002-10-27T10:25:43Z</time>
      </trkpt>
      <trkpt lat="44.321787441149354" lon="11.24100923538208">
        <ele>513</ele>
        <time>2002-10-27T10:26:02Z</time>
      </trkpt>
      <trkpt lat="44.321808815002441" lon="11.24105223454535">
        <ele>514</ele>
        <time>2002-10-27T10:26:05Z</time>
      </trkpt>
      <trkpt lat="44.321894561871886" lon="11.241245269775391">
        <ele>517</ele>
        <time>2002-10-27T10:26:20Z</time>
      </trkpt>
      <trkpt lat="44.32204476557672" lon="11.241524219512939">
        <ele>520</ele>
        <time>2002-10-27T10:26:42Z</time>
      </trkpt>
      <trkpt lat="44.322173595428467" lon="11.241888999938965">
        <ele>523</ele>
        <time>2002-10-27T10:27:03Z</time>
      </trkpt>
      <trkpt lat="44.322237968444824" lon="11.241888999938965">
        <ele>525</ele>
        <time>2002-10-27T10:27:16Z</time>
      </trkpt>
      <trkpt lat="44.322323799133301" lon="11.241910541430116">
        <ele>527</ele>
        <time>2002-10-27T10:27:23Z</time>
      </trkpt>
      <trkpt lat="44.322409629821777" lon="11.241910541430116">
        <ele>529</ele>
        <time>2002-10-27T10:27:32Z</time>
      </trkpt>
      <trkpt lat="44.322474002838135" lon="11.241824626922607">
        <ele>531</ele>
        <time>2002-10-27T10:27:39Z</time>
      </trkpt>
      <trkpt lat="44.322495460510254" lon="11.241738796234131">
        <ele>532</ele>
        <time>2002-10-27T10:27:46Z</time>
      </trkpt>
      <trkpt lat="44.322431087493896" lon="11.241481304168701">
        <ele>535</ele>
        <time>2002-10-27T10:28:03Z</time>
      </trkpt>
      <trkpt lat="44.322409629821777" lon="11.241416931152344">
        <ele>536</ele>
        <time>2002-10-27T10:28:07Z</time>
      </trkpt>
      <trkpt lat="44.322323799133301" lon="11.241223812103271">
        <ele>539</ele>
        <time>2002-10-27T10:28:24Z</time>
      </trkpt>
      <trkpt lat="44.322280883789063" lon="11.24105223454535">
        <ele>542</ele>
        <time>2002-10-27T10:28:37Z</time>
      </trkpt>
      <trkpt lat="44.322323799133301" lon="11.240859031677246">
        <ele>546</ele>
        <time>2002-10-27T10:28:47Z</time>
      </trkpt>
      <trkpt lat="44.322366714477539" lon="11.240751659497619">
        <ele>547</ele>
        <time>2002-10-27T10:29:03Z</time>
      </trkpt>
      <trkpt lat="44.322409629821777" lon="11.240687370300293">
        <ele>550</ele>
        <time>2002-10-27T10:29:19Z</time>
      </trkpt>
      <trkpt lat="44.322388172149658" lon="11.240687370300293">
        <ele>550</ele>
        <time>2002-10-27T10:29:23Z</time>
      </trkpt>
      <trkpt lat="44.322409629821777" lon="11.240601539611816">
        <ele>551</ele>
        <time>2002-10-27T10:29:28Z</time>
      </trkpt>
      <trkpt lat="44.322452461346984" lon="11.240537166595459">
        <ele>552</ele>
        <time>2002-10-27T10:29:31Z</time>
      </trkpt>
      <trkpt lat="44.322452461346984" lon="11.240537166595459">
        <ele>553</ele>
        <time>2002-10-27T10:29:32Z</time>
      </trkpt>
      <trkpt lat="44.322495460510254" lon="11.240322589874268">
        <ele>556</ele>
        <time>2002-10-27T10:29:49Z</time>
      </trkpt>
      <trkpt lat="44.322516918182373" lon="11.240279674530029">
        <ele>557</ele>
        <time>2002-10-27T10:29:53Z</time>
      </trkpt>
      <trkpt lat="44.322559833526611" lon="11.240150928497314">
        <ele>558</ele>
        <time>2002-10-27T10:30:04Z</time>
      </trkpt>
      <trkpt lat="44.322624206542969" lon="11.23976469039917">
        <ele>561</ele>
        <time>2002-10-27T10:30:24Z</time>
      </trkpt>
      <trkpt lat="44.322753036394715" lon="11.239378536120057">
        <ele>564</ele>
        <time>2002-10-27T10:30:42Z</time>
      </trkpt>
      <trkpt lat="44.32283878326416" lon="11.239120960235596">
        <ele>568</ele>
        <time>2002-10-27T10:30:53Z</time>
      </trkpt>
      <trkpt lat="44.322988986968994" lon="11.238691806793213">
        <ele>568</ele>
        <time>2002-10-27T10:31:10Z</time>
      </trkpt>
      <trkpt lat="44.323375225067139" lon="11.238241195678711">
        <ele>567</ele>
        <time>2002-10-27T10:31:27Z</time>
      </trkpt>
      <trkpt lat="44.32358980178833" lon="11.238241195678711">
        <ele>566</ele>
        <time>2002-10-27T10:31:44Z</time>
      </trkpt>
      <trkpt lat="44.32358980178833" lon="11.238262737169862">
        <ele>567</ele>
        <time>2002-10-27T10:36:16Z</time>
      </trkpt>
      <trkpt lat="44.323825836181641" lon="11.238198280334473">
        <ele>571</ele>
        <time>2002-10-27T10:36:30Z</time>
      </trkpt>
      <trkpt lat="44.323997497558594" lon="11.238090991973877">
        <ele>574</ele>
        <time>2002-10-27T10:36:42Z</time>
      </trkpt>
      <trkpt lat="44.324383735656738" lon="11.237833499908447">
        <ele>574</ele>
        <time>2002-10-27T10:37:00Z</time>
      </trkpt>
      <trkpt lat="44.324984634295106" lon="11.237597465515137">
        <ele>575</ele>
        <time>2002-10-27T10:37:18Z</time>
      </trkpt>
      <trkpt lat="44.325048923492432" lon="11.237661838531494">
        <ele>575</ele>
        <time>2002-10-27T10:37:20Z</time>
      </trkpt>
      <trkpt lat="44.32532787322998" lon="11.237855041399598">
        <ele>577</ele>
        <time>2002-10-27T10:37:32Z</time>
      </trkpt>
      <trkpt lat="44.325435161590576" lon="11.237919330596924">
        <ele>576</ele>
        <time>2002-10-27T10:37:39Z</time>
      </trkpt>
    </trkseg>
  </trk>

  <trk>
    <name>Track 003</name>
    <trkseg>
      <trkpt lat="44.331507682800293" lon="11.243219375610352">
        <ele>519</ele>
        <time>2003-03-16T08:53:32Z</time>
      </trkpt>
      <trkpt lat="44.331464767456055" lon="11.243133461102843">
        <ele>521</ele>
        <time>2003-03-16T08:53:37Z</time>
      </trkpt>
      <trkpt lat="44.331400394439697" lon="11.243069171905518">
        <ele>523</ele>
        <time>2003-03-16T08:53:42Z</time>
      </trkpt>
      <trkpt lat="44.331228733062744" lon="11.242790222167969">
        <ele>526</ele>
        <time>2003-03-16T08:54:00Z</time>
      </trkpt>
      <trkpt lat="44.331014240160584" lon="11.242575561627746">
        <ele>528</ele>
        <time>2003-03-16T08:54:20Z</time>
      </trkpt>
      <trkpt lat="44.33086403645575" lon="11.242446899414063">
        <ele>529</ele>
        <time>2003-03-16T08:54:36Z</time>
      </trkpt>
      <trkpt lat="44.330670833587646" lon="11.242425441741943">
        <ele>530</ele>
        <time>2003-03-16T08:54:54Z</time>
      </trkpt>
      <trkpt lat="44.330606460571289" lon="11.242425441741943">
        <ele>531</ele>
        <time>2003-03-16T08:55:03Z</time>
      </trkpt>
      <trkpt lat="44.330434799194336" lon="11.242403984069824">
        <ele>532</ele>
        <time>2003-03-16T08:55:18Z</time>
      </trkpt>
      <trkpt lat="44.330241680145264" lon="11.242232322692871">
        <ele>533</ele>
        <time>2003-03-16T08:55:37Z</time>
      </trkpt>
      <trkpt lat="44.330112934112549" lon="11.242082118988037">
        <ele>534</ele>
        <time>2003-03-16T08:55:52Z</time>
      </trkpt>
      <trkpt lat="44.329876899719238" lon="11.242017662152648">
        <ele>537</ele>
        <time>2003-03-16T08:56:11Z</time>
      </trkpt>
      <trkpt lat="44.329748237505555" lon="11.241931915283203">
        <ele>540</ele>
        <time>2003-03-16T08:56:23Z</time>
      </trkpt>
      <trkpt lat="44.329726696014404" lon="11.241931915283203">
        <ele>540</ele>
        <time>2003-03-16T08:56:24Z</time>
      </trkpt>
      <trkpt lat="44.329683780670166" lon="11.241867458447814">
        <ele>542</ele>
        <time>2003-03-16T08:56:29Z</time>
      </trkpt>
      <trkpt lat="44.32957649230957" lon="11.241695880889893">
        <ele>542</ele>
        <time>2003-03-16T08:56:46Z</time>
      </trkpt>
      <trkpt lat="44.32957649230957" lon="11.241674423217773">
        <ele>542</ele>
        <time>2003-03-16T08:56:47Z</time>
      </trkpt>
      <trkpt lat="44.329597866162658" lon="11.241631507873535">
        <ele>543</ele>
        <time>2003-03-16T08:56:51Z</time>
      </trkpt>
      <trkpt lat="44.329791069030762" lon="11.241545677185059">
        <ele>546</ele>
        <time>2003-03-16T08:57:13Z</time>
      </trkpt>
      <trkpt lat="44.330005561932921" lon="11.241524219512939">
        <ele>548</ele>
        <time>2003-03-16T08:57:32Z</time>
      </trkpt>
      <trkpt lat="44.330263137817383" lon="11.24145976267755">
        <ele>551</ele>
        <time>2003-03-16T08:57:57Z</time>
      </trkpt>
      <trkpt lat="44.330456340685487" lon="11.24145976267755">
        <ele>552</ele>
        <time>2003-03-16T08:58:13Z</time>
      </trkpt>
      <trkpt lat="44.330477714538574" lon="11.241438388824463">
        <ele>553</ele>
        <time>2003-03-16T08:58:16Z</time>
      </trkpt>
      <trkpt lat="44.330434799194336" lon="11.241374015808105">
        <ele>553</ele>
        <time>2003-03-16T08:58:21Z</time>
      </trkpt>
    </trkseg>
  </trk>

</gpx>
